<?xml version="1.0" encoding="UTF-8" standalone="no" ?>
<gpx xmlns="http://www.topografix.com/GPX/1/1" xmlns:xsi="http://www.w3.org/2001/XMLSchema-instance" xsi:schemaLocation="http://www.topografix.com/GPX/1/1 http://www.topografix.com/GPX/1/1/gpx.xsd" version="1.1" creator="VisuGPX - https://www.visugpx.com">
  <metadata>
    <name>Montagne de la Lance par le Rocher des Aures</name>
    <desc><![CDATA[Circuit en boucle au départ de la Chapelle de la Roche (Roche-Saint-Secret).

Circuit trouvé sur le site [url=https://www.visorando.com/]Visorando[/url]. Lien vers le topo : [url]https://www.visorando.com/randonnee-la-lance-par-le-rocher-des-aures/[/url]

Petite variante par rapport à ce topo au niveau de la ferme de la Lance. Après être passé devant le monument, quitter la piste au niveau du virage en épingle et continuer tout droit. Quelques mètres plus loin prendre à gauche un petit sentier juste après un muret en pierre (cairn). Ce sentier en rejoint un autre un peu plus haut. Le prendre à droite sur quelques mètres puis reprendre à gauche un petit sentier qui rejoint le GR qui monte du gîte de Fontlargias. Le prendre à gauche pour rejoindre un peu plus loin le circuit du topo.
]]></desc>
  </metadata>
  <trk>
    <name><![CDATA[2018-04-15 15:54:59]]></name>
    <trkseg>
      <trkpt lat="44.47938" lon="5.04772">
        <ele>449.55</ele>
        <time>2018-04-15T07:07:13Z</time>
      </trkpt>
      <trkpt lat="44.47936" lon="5.04781">
        <ele>450.52</ele>
        <time>2018-04-15T07:07:28Z</time>
      </trkpt>
      <trkpt lat="44.47934" lon="5.04785">
        <ele>451</ele>
        <time>2018-04-15T07:07:49Z</time>
      </trkpt>
      <trkpt lat="44.47924" lon="5.04793">
        <ele>451</ele>
        <time>2018-04-15T07:08:07Z</time>
      </trkpt>
      <trkpt lat="44.47917" lon="5.048">
        <ele>451.48</ele>
        <time>2018-04-15T07:08:16Z</time>
      </trkpt>
      <trkpt lat="44.47906" lon="5.0482">
        <ele>451.48</ele>
        <time>2018-04-15T07:08:33Z</time>
      </trkpt>
      <trkpt lat="44.47893" lon="5.04829">
        <ele>451.96</ele>
        <time>2018-04-15T07:08:46Z</time>
      </trkpt>
      <trkpt lat="44.47879" lon="5.04832">
        <ele>452.92</ele>
        <time>2018-04-15T07:09:01Z</time>
      </trkpt>
      <trkpt lat="44.47862" lon="5.04821">
        <ele>452.92</ele>
        <time>2018-04-15T07:09:16Z</time>
      </trkpt>
      <trkpt lat="44.47848" lon="5.04806">
        <ele>452.92</ele>
        <time>2018-04-15T07:09:31Z</time>
      </trkpt>
      <trkpt lat="44.47835" lon="5.04802">
        <ele>453.4</ele>
        <time>2018-04-15T07:09:44Z</time>
      </trkpt>
      <trkpt lat="44.47833" lon="5.04802">
        <ele>453.4</ele>
        <time>2018-04-15T07:09:45Z</time>
      </trkpt>
      <trkpt lat="44.47831" lon="5.04803">
        <ele>453.88</ele>
        <time>2018-04-15T07:09:47Z</time>
      </trkpt>
      <trkpt lat="44.47819" lon="5.04809">
        <ele>455.8</ele>
        <time>2018-04-15T07:10:01Z</time>
      </trkpt>
      <trkpt lat="44.4781" lon="5.04816">
        <ele>458.69</ele>
        <time>2018-04-15T07:10:17Z</time>
      </trkpt>
      <trkpt lat="44.47798" lon="5.04827">
        <ele>460.61</ele>
        <time>2018-04-15T07:10:32Z</time>
      </trkpt>
      <trkpt lat="44.47786" lon="5.04843">
        <ele>462.53</ele>
        <time>2018-04-15T07:10:48Z</time>
      </trkpt>
      <trkpt lat="44.4778" lon="5.04855">
        <ele>464.45</ele>
        <time>2018-04-15T07:11:02Z</time>
      </trkpt>
      <trkpt lat="44.47771" lon="5.04867">
        <ele>466.38</ele>
        <time>2018-04-15T07:11:17Z</time>
      </trkpt>
      <trkpt lat="44.47766" lon="5.04873">
        <ele>466.86</ele>
        <time>2018-04-15T07:11:24Z</time>
      </trkpt>
      <trkpt lat="44.47751" lon="5.04885">
        <ele>468.3</ele>
        <time>2018-04-15T07:11:40Z</time>
      </trkpt>
      <trkpt lat="44.47748" lon="5.04886">
        <ele>468.3</ele>
        <time>2018-04-15T07:11:42Z</time>
      </trkpt>
      <trkpt lat="44.47736" lon="5.04893">
        <ele>469.74</ele>
        <time>2018-04-15T07:11:55Z</time>
      </trkpt>
      <trkpt lat="44.47727" lon="5.049">
        <ele>470.7</ele>
        <time>2018-04-15T07:12:07Z</time>
      </trkpt>
      <trkpt lat="44.47712" lon="5.04909">
        <ele>472.63</ele>
        <time>2018-04-15T07:12:22Z</time>
      </trkpt>
      <trkpt lat="44.47699" lon="5.04917">
        <ele>473.11</ele>
        <time>2018-04-15T07:12:37Z</time>
      </trkpt>
      <trkpt lat="44.47691" lon="5.04919">
        <ele>473.11</ele>
        <time>2018-04-15T07:12:45Z</time>
      </trkpt>
      <trkpt lat="44.47676" lon="5.04912">
        <ele>475.51</ele>
        <time>2018-04-15T07:12:59Z</time>
      </trkpt>
      <trkpt lat="44.47664" lon="5.04914">
        <ele>478.39</ele>
        <time>2018-04-15T07:13:12Z</time>
      </trkpt>
      <trkpt lat="44.47654" lon="5.04919">
        <ele>481.28</ele>
        <time>2018-04-15T07:13:26Z</time>
      </trkpt>
      <trkpt lat="44.47647" lon="5.04931">
        <ele>483.68</ele>
        <time>2018-04-15T07:13:39Z</time>
      </trkpt>
      <trkpt lat="44.47645" lon="5.04934">
        <ele>483.68</ele>
        <time>2018-04-15T07:13:42Z</time>
      </trkpt>
      <trkpt lat="44.4764" lon="5.04946">
        <ele>485.6</ele>
        <time>2018-04-15T07:13:55Z</time>
      </trkpt>
      <trkpt lat="44.47628" lon="5.04953">
        <ele>487.53</ele>
        <time>2018-04-15T07:14:09Z</time>
      </trkpt>
      <trkpt lat="44.47627" lon="5.04948">
        <ele>488.01</ele>
        <time>2018-04-15T07:14:14Z</time>
      </trkpt>
      <trkpt lat="44.47627" lon="5.04928">
        <ele>488.97</ele>
        <time>2018-04-15T07:14:29Z</time>
      </trkpt>
      <trkpt lat="44.47626" lon="5.04915">
        <ele>489.93</ele>
        <time>2018-04-15T07:14:39Z</time>
      </trkpt>
      <trkpt lat="44.47626" lon="5.04911">
        <ele>489.93</ele>
        <time>2018-04-15T07:14:41Z</time>
      </trkpt>
      <trkpt lat="44.47623" lon="5.0489">
        <ele>489.93</ele>
        <time>2018-04-15T07:14:55Z</time>
      </trkpt>
      <trkpt lat="44.47623" lon="5.04888">
        <ele>489.93</ele>
        <time>2018-04-15T07:14:56Z</time>
      </trkpt>
      <trkpt lat="44.47622" lon="5.04885">
        <ele>489.93</ele>
        <time>2018-04-15T07:14:58Z</time>
      </trkpt>
      <trkpt lat="44.47623" lon="5.04876">
        <ele>490.41</ele>
        <time>2018-04-15T07:15:04Z</time>
      </trkpt>
      <trkpt lat="44.47622" lon="5.04865">
        <ele>490.89</ele>
        <time>2018-04-15T07:15:11Z</time>
      </trkpt>
      <trkpt lat="44.47617" lon="5.04837">
        <ele>492.33</ele>
        <time>2018-04-15T07:15:29Z</time>
      </trkpt>
      <trkpt lat="44.4761" lon="5.0482">
        <ele>493.77</ele>
        <time>2018-04-15T07:15:44Z</time>
      </trkpt>
      <trkpt lat="44.47601" lon="5.04809">
        <ele>496.66</ele>
        <time>2018-04-15T07:15:59Z</time>
      </trkpt>
      <trkpt lat="44.47596" lon="5.04793">
        <ele>498.1</ele>
        <time>2018-04-15T07:16:13Z</time>
      </trkpt>
      <trkpt lat="44.476" lon="5.04775">
        <ele>500.02</ele>
        <time>2018-04-15T07:16:26Z</time>
      </trkpt>
      <trkpt lat="44.476" lon="5.04766">
        <ele>501.46</ele>
        <time>2018-04-15T07:16:33Z</time>
      </trkpt>
      <trkpt lat="44.47602" lon="5.04759">
        <ele>501.46</ele>
        <time>2018-04-15T07:16:38Z</time>
      </trkpt>
      <trkpt lat="44.47598" lon="5.04745">
        <ele>502.43</ele>
        <time>2018-04-15T07:16:51Z</time>
      </trkpt>
      <trkpt lat="44.47585" lon="5.04741">
        <ele>504.83</ele>
        <time>2018-04-15T07:17:06Z</time>
      </trkpt>
      <trkpt lat="44.4758" lon="5.04745">
        <ele>505.79</ele>
        <time>2018-04-15T07:17:12Z</time>
      </trkpt>
      <trkpt lat="44.47579" lon="5.04748">
        <ele>505.79</ele>
        <time>2018-04-15T07:17:14Z</time>
      </trkpt>
      <trkpt lat="44.47575" lon="5.04752">
        <ele>506.27</ele>
        <time>2018-04-15T07:17:19Z</time>
      </trkpt>
      <trkpt lat="44.47573" lon="5.04755">
        <ele>506.75</ele>
        <time>2018-04-15T07:17:22Z</time>
      </trkpt>
      <trkpt lat="44.47565" lon="5.04769">
        <ele>508.19</ele>
        <time>2018-04-15T07:17:34Z</time>
      </trkpt>
      <trkpt lat="44.47563" lon="5.04772">
        <ele>508.19</ele>
        <time>2018-04-15T07:17:37Z</time>
      </trkpt>
      <trkpt lat="44.4756" lon="5.04782">
        <ele>509.64</ele>
        <time>2018-04-15T07:17:44Z</time>
      </trkpt>
      <trkpt lat="44.47553" lon="5.04801">
        <ele>512.04</ele>
        <time>2018-04-15T07:17:59Z</time>
      </trkpt>
      <trkpt lat="44.47547" lon="5.04819">
        <ele>514.92</ele>
        <time>2018-04-15T07:18:15Z</time>
      </trkpt>
      <trkpt lat="44.47541" lon="5.04836">
        <ele>517.33</ele>
        <time>2018-04-15T07:18:31Z</time>
      </trkpt>
      <trkpt lat="44.47536" lon="5.04848">
        <ele>519.25</ele>
        <time>2018-04-15T07:18:46Z</time>
      </trkpt>
      <trkpt lat="44.47532" lon="5.04864">
        <ele>521.65</ele>
        <time>2018-04-15T07:19:00Z</time>
      </trkpt>
      <trkpt lat="44.47529" lon="5.04879">
        <ele>524.54</ele>
        <time>2018-04-15T07:19:14Z</time>
      </trkpt>
      <trkpt lat="44.47527" lon="5.04892">
        <ele>525.98</ele>
        <time>2018-04-15T07:19:26Z</time>
      </trkpt>
      <trkpt lat="44.47522" lon="5.0491">
        <ele>528.38</ele>
        <time>2018-04-15T07:19:41Z</time>
      </trkpt>
      <trkpt lat="44.47514" lon="5.04921">
        <ele>531.27</ele>
        <time>2018-04-15T07:19:56Z</time>
      </trkpt>
      <trkpt lat="44.47505" lon="5.04932">
        <ele>533.19</ele>
        <time>2018-04-15T07:20:10Z</time>
      </trkpt>
      <trkpt lat="44.47498" lon="5.04946">
        <ele>535.59</ele>
        <time>2018-04-15T07:20:26Z</time>
      </trkpt>
      <trkpt lat="44.47491" lon="5.04963">
        <ele>538.48</ele>
        <time>2018-04-15T07:20:42Z</time>
      </trkpt>
      <trkpt lat="44.47486" lon="5.04978">
        <ele>540.4</ele>
        <time>2018-04-15T07:20:56Z</time>
      </trkpt>
      <trkpt lat="44.47483" lon="5.04994">
        <ele>541.84</ele>
        <time>2018-04-15T07:21:09Z</time>
      </trkpt>
      <trkpt lat="44.4748" lon="5.05007">
        <ele>542.8</ele>
        <time>2018-04-15T07:21:18Z</time>
      </trkpt>
      <trkpt lat="44.47479" lon="5.0501">
        <ele>542.8</ele>
        <time>2018-04-15T07:21:20Z</time>
      </trkpt>
      <trkpt lat="44.4747" lon="5.05028">
        <ele>543.28</ele>
        <time>2018-04-15T07:21:35Z</time>
      </trkpt>
      <trkpt lat="44.47462" lon="5.0504">
        <ele>543.76</ele>
        <time>2018-04-15T07:21:49Z</time>
      </trkpt>
      <trkpt lat="44.47452" lon="5.05056">
        <ele>545.69</ele>
        <time>2018-04-15T07:22:04Z</time>
      </trkpt>
      <trkpt lat="44.47442" lon="5.05076">
        <ele>547.61</ele>
        <time>2018-04-15T07:22:21Z</time>
      </trkpt>
      <trkpt lat="44.47437" lon="5.0509">
        <ele>549.05</ele>
        <time>2018-04-15T07:22:34Z</time>
      </trkpt>
      <trkpt lat="44.47429" lon="5.05108">
        <ele>550.97</ele>
        <time>2018-04-15T07:22:50Z</time>
      </trkpt>
      <trkpt lat="44.47426" lon="5.05112">
        <ele>551.93</ele>
        <time>2018-04-15T07:22:56Z</time>
      </trkpt>
      <trkpt lat="44.47417" lon="5.05128">
        <ele>553.38</ele>
        <time>2018-04-15T07:23:10Z</time>
      </trkpt>
      <trkpt lat="44.4741" lon="5.0514">
        <ele>555.3</ele>
        <time>2018-04-15T07:23:23Z</time>
      </trkpt>
      <trkpt lat="44.47402" lon="5.05151">
        <ele>556.26</ele>
        <time>2018-04-15T07:23:35Z</time>
      </trkpt>
      <trkpt lat="44.47393" lon="5.05169">
        <ele>558.18</ele>
        <time>2018-04-15T07:23:49Z</time>
      </trkpt>
      <trkpt lat="44.47388" lon="5.05184">
        <ele>560.11</ele>
        <time>2018-04-15T07:24:02Z</time>
      </trkpt>
      <trkpt lat="44.47385" lon="5.05203">
        <ele>562.03</ele>
        <time>2018-04-15T07:24:16Z</time>
      </trkpt>
      <trkpt lat="44.47387" lon="5.05217">
        <ele>562.99</ele>
        <time>2018-04-15T07:24:26Z</time>
      </trkpt>
      <trkpt lat="44.4739" lon="5.05235">
        <ele>564.43</ele>
        <time>2018-04-15T07:24:39Z</time>
      </trkpt>
      <trkpt lat="44.4739" lon="5.05236">
        <ele>564.43</ele>
        <time>2018-04-15T07:24:40Z</time>
      </trkpt>
      <trkpt lat="44.4739" lon="5.0525">
        <ele>565.39</ele>
        <time>2018-04-15T07:24:48Z</time>
      </trkpt>
      <trkpt lat="44.47389" lon="5.05262">
        <ele>566.83</ele>
        <time>2018-04-15T07:24:56Z</time>
      </trkpt>
      <trkpt lat="44.47383" lon="5.05283">
        <ele>568.28</ele>
        <time>2018-04-15T07:25:10Z</time>
      </trkpt>
      <trkpt lat="44.4738" lon="5.0529">
        <ele>569.24</ele>
        <time>2018-04-15T07:25:16Z</time>
      </trkpt>
      <trkpt lat="44.47374" lon="5.05305">
        <ele>570.2</ele>
        <time>2018-04-15T07:25:30Z</time>
      </trkpt>
      <trkpt lat="44.4737" lon="5.05318">
        <ele>571.64</ele>
        <time>2018-04-15T07:25:44Z</time>
      </trkpt>
      <trkpt lat="44.47362" lon="5.05316">
        <ele>570.68</ele>
        <time>2018-04-15T07:27:56Z</time>
      </trkpt>
      <trkpt lat="44.47355" lon="5.05314">
        <ele>569.72</ele>
        <time>2018-04-15T07:28:05Z</time>
      </trkpt>
      <trkpt lat="44.47344" lon="5.05315">
        <ele>567.8</ele>
        <time>2018-04-15T07:28:18Z</time>
      </trkpt>
      <trkpt lat="44.47334" lon="5.05316">
        <ele>564.91</ele>
        <time>2018-04-15T07:28:32Z</time>
      </trkpt>
      <trkpt lat="44.47326" lon="5.05319">
        <ele>561.55</ele>
        <time>2018-04-15T07:28:45Z</time>
      </trkpt>
      <trkpt lat="44.47316" lon="5.05319">
        <ele>558.66</ele>
        <time>2018-04-15T07:28:59Z</time>
      </trkpt>
      <trkpt lat="44.47301" lon="5.05321">
        <ele>555.3</ele>
        <time>2018-04-15T07:29:14Z</time>
      </trkpt>
      <trkpt lat="44.4729" lon="5.05323">
        <ele>553.38</ele>
        <time>2018-04-15T07:29:27Z</time>
      </trkpt>
      <trkpt lat="44.47277" lon="5.05328">
        <ele>550.97</ele>
        <time>2018-04-15T07:29:42Z</time>
      </trkpt>
      <trkpt lat="44.47269" lon="5.05328">
        <ele>550.97</ele>
        <time>2018-04-15T07:29:58Z</time>
      </trkpt>
      <trkpt lat="44.47261" lon="5.05327">
        <ele>549.53</ele>
        <time>2018-04-15T07:30:19Z</time>
      </trkpt>
      <trkpt lat="44.47253" lon="5.05319">
        <ele>546.17</ele>
        <time>2018-04-15T07:30:32Z</time>
      </trkpt>
      <trkpt lat="44.47242" lon="5.05313">
        <ele>542.8</ele>
        <time>2018-04-15T07:30:49Z</time>
      </trkpt>
      <trkpt lat="44.47232" lon="5.05306">
        <ele>541.84</ele>
        <time>2018-04-15T07:31:05Z</time>
      </trkpt>
      <trkpt lat="44.47222" lon="5.05295">
        <ele>539.92</ele>
        <time>2018-04-15T07:31:17Z</time>
      </trkpt>
      <trkpt lat="44.47213" lon="5.05286">
        <ele>537.99</ele>
        <time>2018-04-15T07:31:30Z</time>
      </trkpt>
      <trkpt lat="44.47203" lon="5.05278">
        <ele>535.59</ele>
        <time>2018-04-15T07:31:43Z</time>
      </trkpt>
      <trkpt lat="44.47192" lon="5.05269">
        <ele>533.19</ele>
        <time>2018-04-15T07:31:56Z</time>
      </trkpt>
      <trkpt lat="44.47186" lon="5.05266">
        <ele>530.79</ele>
        <time>2018-04-15T07:32:07Z</time>
      </trkpt>
      <trkpt lat="44.47178" lon="5.05263">
        <ele>531.75</ele>
        <time>2018-04-15T07:32:16Z</time>
      </trkpt>
      <trkpt lat="44.47169" lon="5.05253">
        <ele>533.19</ele>
        <time>2018-04-15T07:32:29Z</time>
      </trkpt>
      <trkpt lat="44.47159" lon="5.05241">
        <ele>536.07</ele>
        <time>2018-04-15T07:32:44Z</time>
      </trkpt>
      <trkpt lat="44.47151" lon="5.05236">
        <ele>537.51</ele>
        <time>2018-04-15T07:32:57Z</time>
      </trkpt>
      <trkpt lat="44.47141" lon="5.05226">
        <ele>538.48</ele>
        <time>2018-04-15T07:33:10Z</time>
      </trkpt>
      <trkpt lat="44.47129" lon="5.05218">
        <ele>539.92</ele>
        <time>2018-04-15T07:33:23Z</time>
      </trkpt>
      <trkpt lat="44.47121" lon="5.0521">
        <ele>541.84</ele>
        <time>2018-04-15T07:33:36Z</time>
      </trkpt>
      <trkpt lat="44.47112" lon="5.052">
        <ele>544.24</ele>
        <time>2018-04-15T07:33:51Z</time>
      </trkpt>
      <trkpt lat="44.47107" lon="5.05192">
        <ele>544.72</ele>
        <time>2018-04-15T07:33:59Z</time>
      </trkpt>
      <trkpt lat="44.47099" lon="5.05178">
        <ele>544.72</ele>
        <time>2018-04-15T07:34:11Z</time>
      </trkpt>
      <trkpt lat="44.47092" lon="5.05163">
        <ele>544.72</ele>
        <time>2018-04-15T07:34:23Z</time>
      </trkpt>
      <trkpt lat="44.47087" lon="5.05145">
        <ele>545.2</ele>
        <time>2018-04-15T07:34:37Z</time>
      </trkpt>
      <trkpt lat="44.47079" lon="5.05137">
        <ele>547.61</ele>
        <time>2018-04-15T07:34:52Z</time>
      </trkpt>
      <trkpt lat="44.47066" lon="5.05123">
        <ele>546.17</ele>
        <time>2018-04-15T07:35:04Z</time>
      </trkpt>
      <trkpt lat="44.47048" lon="5.05113">
        <ele>545.2</ele>
        <time>2018-04-15T07:35:21Z</time>
      </trkpt>
      <trkpt lat="44.47031" lon="5.05109">
        <ele>544.24</ele>
        <time>2018-04-15T07:35:38Z</time>
      </trkpt>
      <trkpt lat="44.47022" lon="5.05111">
        <ele>546.17</ele>
        <time>2018-04-15T07:35:52Z</time>
      </trkpt>
      <trkpt lat="44.47006" lon="5.05112">
        <ele>547.13</ele>
        <time>2018-04-15T07:36:07Z</time>
      </trkpt>
      <trkpt lat="44.47001" lon="5.0511">
        <ele>547.13</ele>
        <time>2018-04-15T07:36:13Z</time>
      </trkpt>
      <trkpt lat="44.46984" lon="5.05106">
        <ele>547.61</ele>
        <time>2018-04-15T07:36:28Z</time>
      </trkpt>
      <trkpt lat="44.46969" lon="5.05101">
        <ele>546.17</ele>
        <time>2018-04-15T07:36:42Z</time>
      </trkpt>
      <trkpt lat="44.46953" lon="5.05097">
        <ele>545.2</ele>
        <time>2018-04-15T07:36:57Z</time>
      </trkpt>
      <trkpt lat="44.46941" lon="5.05099">
        <ele>545.2</ele>
        <time>2018-04-15T07:37:13Z</time>
      </trkpt>
      <trkpt lat="44.46924" lon="5.05115">
        <ele>547.61</ele>
        <time>2018-04-15T07:37:29Z</time>
      </trkpt>
      <trkpt lat="44.46918" lon="5.05116">
        <ele>547.61</ele>
        <time>2018-04-15T07:37:34Z</time>
      </trkpt>
      <trkpt lat="44.46907" lon="5.05125">
        <ele>548.09</ele>
        <time>2018-04-15T07:37:48Z</time>
      </trkpt>
      <trkpt lat="44.46896" lon="5.05134">
        <ele>549.05</ele>
        <time>2018-04-15T07:38:00Z</time>
      </trkpt>
      <trkpt lat="44.4688" lon="5.05147">
        <ele>550.49</ele>
        <time>2018-04-15T07:38:15Z</time>
      </trkpt>
      <trkpt lat="44.46868" lon="5.0516">
        <ele>551.93</ele>
        <time>2018-04-15T07:38:31Z</time>
      </trkpt>
      <trkpt lat="44.46858" lon="5.05169">
        <ele>550.49</ele>
        <time>2018-04-15T07:38:45Z</time>
      </trkpt>
      <trkpt lat="44.46849" lon="5.05182">
        <ele>548.09</ele>
        <time>2018-04-15T07:38:59Z</time>
      </trkpt>
      <trkpt lat="44.46839" lon="5.05203">
        <ele>546.65</ele>
        <time>2018-04-15T07:39:14Z</time>
      </trkpt>
      <trkpt lat="44.46826" lon="5.0522">
        <ele>545.2</ele>
        <time>2018-04-15T07:39:29Z</time>
      </trkpt>
      <trkpt lat="44.46817" lon="5.0523">
        <ele>545.2</ele>
        <time>2018-04-15T07:39:43Z</time>
      </trkpt>
      <trkpt lat="44.46814" lon="5.05236">
        <ele>545.2</ele>
        <time>2018-04-15T07:39:47Z</time>
      </trkpt>
      <trkpt lat="44.46808" lon="5.05254">
        <ele>545.2</ele>
        <time>2018-04-15T07:40:00Z</time>
      </trkpt>
      <trkpt lat="44.46804" lon="5.05265">
        <ele>544.72</ele>
        <time>2018-04-15T07:40:16Z</time>
      </trkpt>
      <trkpt lat="44.46805" lon="5.05283">
        <ele>542.32</ele>
        <time>2018-04-15T07:40:32Z</time>
      </trkpt>
      <trkpt lat="44.46806" lon="5.05296">
        <ele>543.76</ele>
        <time>2018-04-15T07:40:44Z</time>
      </trkpt>
      <trkpt lat="44.46805" lon="5.05313">
        <ele>542.32</ele>
        <time>2018-04-15T07:40:55Z</time>
      </trkpt>
      <trkpt lat="44.46803" lon="5.05334">
        <ele>539.92</ele>
        <time>2018-04-15T07:41:09Z</time>
      </trkpt>
      <trkpt lat="44.46801" lon="5.05354">
        <ele>537.99</ele>
        <time>2018-04-15T07:41:22Z</time>
      </trkpt>
      <trkpt lat="44.46795" lon="5.05372">
        <ele>537.99</ele>
        <time>2018-04-15T07:41:34Z</time>
      </trkpt>
      <trkpt lat="44.46786" lon="5.0539">
        <ele>537.99</ele>
        <time>2018-04-15T07:41:47Z</time>
      </trkpt>
      <trkpt lat="44.46777" lon="5.05407">
        <ele>537.51</ele>
        <time>2018-04-15T07:42:00Z</time>
      </trkpt>
      <trkpt lat="44.46769" lon="5.05416">
        <ele>537.51</ele>
        <time>2018-04-15T07:42:12Z</time>
      </trkpt>
      <trkpt lat="44.46755" lon="5.05437">
        <ele>537.51</ele>
        <time>2018-04-15T07:42:26Z</time>
      </trkpt>
      <trkpt lat="44.4675" lon="5.05447">
        <ele>538.96</ele>
        <time>2018-04-15T07:42:33Z</time>
      </trkpt>
      <trkpt lat="44.46741" lon="5.05462">
        <ele>539.44</ele>
        <time>2018-04-15T07:42:45Z</time>
      </trkpt>
      <trkpt lat="44.46733" lon="5.05472">
        <ele>540.88</ele>
        <time>2018-04-15T07:42:57Z</time>
      </trkpt>
      <trkpt lat="44.46728" lon="5.05482">
        <ele>542.32</ele>
        <time>2018-04-15T07:43:09Z</time>
      </trkpt>
      <trkpt lat="44.4672" lon="5.05491">
        <ele>542.8</ele>
        <time>2018-04-15T07:43:19Z</time>
      </trkpt>
      <trkpt lat="44.46708" lon="5.05507">
        <ele>543.28</ele>
        <time>2018-04-15T07:43:32Z</time>
      </trkpt>
      <trkpt lat="44.46696" lon="5.05529">
        <ele>543.76</ele>
        <time>2018-04-15T07:43:46Z</time>
      </trkpt>
      <trkpt lat="44.46689" lon="5.05544">
        <ele>545.2</ele>
        <time>2018-04-15T07:43:58Z</time>
      </trkpt>
      <trkpt lat="44.46678" lon="5.05569">
        <ele>546.17</ele>
        <time>2018-04-15T07:44:13Z</time>
      </trkpt>
      <trkpt lat="44.4667" lon="5.05587">
        <ele>547.61</ele>
        <time>2018-04-15T07:44:27Z</time>
      </trkpt>
      <trkpt lat="44.46663" lon="5.056">
        <ele>549.53</ele>
        <time>2018-04-15T07:44:39Z</time>
      </trkpt>
      <trkpt lat="44.46654" lon="5.05611">
        <ele>550.49</ele>
        <time>2018-04-15T07:44:54Z</time>
      </trkpt>
      <trkpt lat="44.4665" lon="5.05619">
        <ele>550.97</ele>
        <time>2018-04-15T07:45:08Z</time>
      </trkpt>
      <trkpt lat="44.4666" lon="5.05619">
        <ele>552.41</ele>
        <time>2018-04-15T07:49:37Z</time>
      </trkpt>
      <trkpt lat="44.46673" lon="5.05615">
        <ele>554.82</ele>
        <time>2018-04-15T07:49:52Z</time>
      </trkpt>
      <trkpt lat="44.46682" lon="5.05609">
        <ele>557.22</ele>
        <time>2018-04-15T07:50:08Z</time>
      </trkpt>
      <trkpt lat="44.46694" lon="5.05603">
        <ele>559.62</ele>
        <time>2018-04-15T07:50:24Z</time>
      </trkpt>
      <trkpt lat="44.46705" lon="5.05598">
        <ele>562.99</ele>
        <time>2018-04-15T07:50:42Z</time>
      </trkpt>
      <trkpt lat="44.46715" lon="5.05588">
        <ele>564.43</ele>
        <time>2018-04-15T07:50:56Z</time>
      </trkpt>
      <trkpt lat="44.46727" lon="5.05582">
        <ele>566.83</ele>
        <time>2018-04-15T07:51:11Z</time>
      </trkpt>
      <trkpt lat="44.46738" lon="5.05572">
        <ele>569.24</ele>
        <time>2018-04-15T07:51:26Z</time>
      </trkpt>
      <trkpt lat="44.46749" lon="5.05563">
        <ele>571.64</ele>
        <time>2018-04-15T07:51:41Z</time>
      </trkpt>
      <trkpt lat="44.4676" lon="5.05555">
        <ele>574.04</ele>
        <time>2018-04-15T07:51:57Z</time>
      </trkpt>
      <trkpt lat="44.46771" lon="5.05548">
        <ele>576.93</ele>
        <time>2018-04-15T07:52:13Z</time>
      </trkpt>
      <trkpt lat="44.4678" lon="5.05543">
        <ele>578.85</ele>
        <time>2018-04-15T07:52:27Z</time>
      </trkpt>
      <trkpt lat="44.46794" lon="5.05536">
        <ele>579.33</ele>
        <time>2018-04-15T07:52:42Z</time>
      </trkpt>
      <trkpt lat="44.46806" lon="5.05529">
        <ele>580.29</ele>
        <time>2018-04-15T07:52:54Z</time>
      </trkpt>
      <trkpt lat="44.46818" lon="5.05523">
        <ele>581.73</ele>
        <time>2018-04-15T07:53:08Z</time>
      </trkpt>
      <trkpt lat="44.46829" lon="5.05518">
        <ele>584.14</ele>
        <time>2018-04-15T07:53:23Z</time>
      </trkpt>
      <trkpt lat="44.46834" lon="5.05525">
        <ele>586.54</ele>
        <time>2018-04-15T07:53:38Z</time>
      </trkpt>
      <trkpt lat="44.4683" lon="5.05536">
        <ele>589.91</ele>
        <time>2018-04-15T07:53:54Z</time>
      </trkpt>
      <trkpt lat="44.46826" lon="5.05544">
        <ele>592.31</ele>
        <time>2018-04-15T07:54:09Z</time>
      </trkpt>
      <trkpt lat="44.46824" lon="5.05554">
        <ele>595.19</ele>
        <time>2018-04-15T07:54:24Z</time>
      </trkpt>
      <trkpt lat="44.46817" lon="5.05562">
        <ele>597.6</ele>
        <time>2018-04-15T07:54:40Z</time>
      </trkpt>
      <trkpt lat="44.46811" lon="5.05573">
        <ele>600</ele>
        <time>2018-04-15T07:54:56Z</time>
      </trkpt>
      <trkpt lat="44.4681" lon="5.05585">
        <ele>602.88</ele>
        <time>2018-04-15T07:55:10Z</time>
      </trkpt>
      <trkpt lat="44.46809" lon="5.05598">
        <ele>606.25</ele>
        <time>2018-04-15T07:55:26Z</time>
      </trkpt>
      <trkpt lat="44.46817" lon="5.05602">
        <ele>608.65</ele>
        <time>2018-04-15T07:55:41Z</time>
      </trkpt>
      <trkpt lat="44.46826" lon="5.05601">
        <ele>611.06</ele>
        <time>2018-04-15T07:55:58Z</time>
      </trkpt>
      <trkpt lat="44.4684" lon="5.05599">
        <ele>613.46</ele>
        <time>2018-04-15T07:56:14Z</time>
      </trkpt>
      <trkpt lat="44.46844" lon="5.05603">
        <ele>616.34</ele>
        <time>2018-04-15T07:56:30Z</time>
      </trkpt>
      <trkpt lat="44.46834" lon="5.05615">
        <ele>616.34</ele>
        <time>2018-04-15T07:56:45Z</time>
      </trkpt>
      <trkpt lat="44.46823" lon="5.05625">
        <ele>618.26</ele>
        <time>2018-04-15T07:56:58Z</time>
      </trkpt>
      <trkpt lat="44.46816" lon="5.0564">
        <ele>619.23</ele>
        <time>2018-04-15T07:57:13Z</time>
      </trkpt>
      <trkpt lat="44.46807" lon="5.0566">
        <ele>619.23</ele>
        <time>2018-04-15T07:57:27Z</time>
      </trkpt>
      <trkpt lat="44.46803" lon="5.05678">
        <ele>619.23</ele>
        <time>2018-04-15T07:57:41Z</time>
      </trkpt>
      <trkpt lat="44.46803" lon="5.05703">
        <ele>621.63</ele>
        <time>2018-04-15T07:57:54Z</time>
      </trkpt>
      <trkpt lat="44.46803" lon="5.05715">
        <ele>624.03</ele>
        <time>2018-04-15T07:58:05Z</time>
      </trkpt>
      <trkpt lat="44.46806" lon="5.05729">
        <ele>626.92</ele>
        <time>2018-04-15T07:58:18Z</time>
      </trkpt>
      <trkpt lat="44.46808" lon="5.0575">
        <ele>630.28</ele>
        <time>2018-04-15T07:58:33Z</time>
      </trkpt>
      <trkpt lat="44.4681" lon="5.05765">
        <ele>632.2</ele>
        <time>2018-04-15T07:58:49Z</time>
      </trkpt>
      <trkpt lat="44.46805" lon="5.05779">
        <ele>632.2</ele>
        <time>2018-04-15T07:59:04Z</time>
      </trkpt>
      <trkpt lat="44.46796" lon="5.05794">
        <ele>632.68</ele>
        <time>2018-04-15T07:59:17Z</time>
      </trkpt>
      <trkpt lat="44.46799" lon="5.05808">
        <ele>635.57</ele>
        <time>2018-04-15T07:59:33Z</time>
      </trkpt>
      <trkpt lat="44.4681" lon="5.05805">
        <ele>638.45</ele>
        <time>2018-04-15T07:59:49Z</time>
      </trkpt>
      <trkpt lat="44.46821" lon="5.05794">
        <ele>640.38</ele>
        <time>2018-04-15T08:00:05Z</time>
      </trkpt>
      <trkpt lat="44.4683" lon="5.05782">
        <ele>643.26</ele>
        <time>2018-04-15T08:00:21Z</time>
      </trkpt>
      <trkpt lat="44.46837" lon="5.05772">
        <ele>646.62</ele>
        <time>2018-04-15T08:00:35Z</time>
      </trkpt>
      <trkpt lat="44.46838" lon="5.05771">
        <ele>646.62</ele>
        <time>2018-04-15T08:00:38Z</time>
      </trkpt>
      <trkpt lat="44.46841" lon="5.05767">
        <ele>647.59</ele>
        <time>2018-04-15T08:00:42Z</time>
      </trkpt>
      <trkpt lat="44.46849" lon="5.05751">
        <ele>649.03</ele>
        <time>2018-04-15T08:00:56Z</time>
      </trkpt>
      <trkpt lat="44.46857" lon="5.05742">
        <ele>651.91</ele>
        <time>2018-04-15T08:01:11Z</time>
      </trkpt>
      <trkpt lat="44.46863" lon="5.05734">
        <ele>655.28</ele>
        <time>2018-04-15T08:01:25Z</time>
      </trkpt>
      <trkpt lat="44.46869" lon="5.05721">
        <ele>657.2</ele>
        <time>2018-04-15T08:01:41Z</time>
      </trkpt>
      <trkpt lat="44.46875" lon="5.0571">
        <ele>659.6</ele>
        <time>2018-04-15T08:01:56Z</time>
      </trkpt>
      <trkpt lat="44.46883" lon="5.05697">
        <ele>662.01</ele>
        <time>2018-04-15T08:02:13Z</time>
      </trkpt>
      <trkpt lat="44.46894" lon="5.05704">
        <ele>664.41</ele>
        <time>2018-04-15T08:02:29Z</time>
      </trkpt>
      <trkpt lat="44.46894" lon="5.05716">
        <ele>667.29</ele>
        <time>2018-04-15T08:02:42Z</time>
      </trkpt>
      <trkpt lat="44.46895" lon="5.05729">
        <ele>669.7</ele>
        <time>2018-04-15T08:02:56Z</time>
      </trkpt>
      <trkpt lat="44.46896" lon="5.05732">
        <ele>670.18</ele>
        <time>2018-04-15T08:03:11Z</time>
      </trkpt>
      <trkpt lat="44.46895" lon="5.05731">
        <ele>670.18</ele>
        <time>2018-04-15T08:03:39Z</time>
      </trkpt>
      <trkpt lat="44.46897" lon="5.05732">
        <ele>670.18</ele>
        <time>2018-04-15T08:03:55Z</time>
      </trkpt>
      <trkpt lat="44.46899" lon="5.05727">
        <ele>670.18</ele>
        <time>2018-04-15T08:04:16Z</time>
      </trkpt>
      <trkpt lat="44.46907" lon="5.0571">
        <ele>670.18</ele>
        <time>2018-04-15T08:04:31Z</time>
      </trkpt>
      <trkpt lat="44.46915" lon="5.05698">
        <ele>672.58</ele>
        <time>2018-04-15T08:04:43Z</time>
      </trkpt>
      <trkpt lat="44.46921" lon="5.05706">
        <ele>674.98</ele>
        <time>2018-04-15T08:04:57Z</time>
      </trkpt>
      <trkpt lat="44.46922" lon="5.05722">
        <ele>678.35</ele>
        <time>2018-04-15T08:05:12Z</time>
      </trkpt>
      <trkpt lat="44.46922" lon="5.05743">
        <ele>680.75</ele>
        <time>2018-04-15T08:05:27Z</time>
      </trkpt>
      <trkpt lat="44.46923" lon="5.05755">
        <ele>682.67</ele>
        <time>2018-04-15T08:05:39Z</time>
      </trkpt>
      <trkpt lat="44.46923" lon="5.05767">
        <ele>684.12</ele>
        <time>2018-04-15T08:05:51Z</time>
      </trkpt>
      <trkpt lat="44.46919" lon="5.05786">
        <ele>686.52</ele>
        <time>2018-04-15T08:06:07Z</time>
      </trkpt>
      <trkpt lat="44.46919" lon="5.05794">
        <ele>687.96</ele>
        <time>2018-04-15T08:06:20Z</time>
      </trkpt>
      <trkpt lat="44.46919" lon="5.05807">
        <ele>690.84</ele>
        <time>2018-04-15T08:06:36Z</time>
      </trkpt>
      <trkpt lat="44.46918" lon="5.05824">
        <ele>692.29</ele>
        <time>2018-04-15T08:06:51Z</time>
      </trkpt>
      <trkpt lat="44.46917" lon="5.05838">
        <ele>694.21</ele>
        <time>2018-04-15T08:07:04Z</time>
      </trkpt>
      <trkpt lat="44.46913" lon="5.05854">
        <ele>696.13</ele>
        <time>2018-04-15T08:07:17Z</time>
      </trkpt>
      <trkpt lat="44.46905" lon="5.05872">
        <ele>698.53</ele>
        <time>2018-04-15T08:07:32Z</time>
      </trkpt>
      <trkpt lat="44.46902" lon="5.0589">
        <ele>699.98</ele>
        <time>2018-04-15T08:07:47Z</time>
      </trkpt>
      <trkpt lat="44.46896" lon="5.05907">
        <ele>699.98</ele>
        <time>2018-04-15T08:08:01Z</time>
      </trkpt>
      <trkpt lat="44.46902" lon="5.05923">
        <ele>702.38</ele>
        <time>2018-04-15T08:08:13Z</time>
      </trkpt>
      <trkpt lat="44.46907" lon="5.05944">
        <ele>705.26</ele>
        <time>2018-04-15T08:08:29Z</time>
      </trkpt>
      <trkpt lat="44.46912" lon="5.05953">
        <ele>707.67</ele>
        <time>2018-04-15T08:08:43Z</time>
      </trkpt>
      <trkpt lat="44.46916" lon="5.05966">
        <ele>710.55</ele>
        <time>2018-04-15T08:08:57Z</time>
      </trkpt>
      <trkpt lat="44.46923" lon="5.0598">
        <ele>712.47</ele>
        <time>2018-04-15T08:09:15Z</time>
      </trkpt>
      <trkpt lat="44.46928" lon="5.0599">
        <ele>715.36</ele>
        <time>2018-04-15T08:09:29Z</time>
      </trkpt>
      <trkpt lat="44.46939" lon="5.06005">
        <ele>716.8</ele>
        <time>2018-04-15T08:09:46Z</time>
      </trkpt>
      <trkpt lat="44.46943" lon="5.06013">
        <ele>719.2</ele>
        <time>2018-04-15T08:10:01Z</time>
      </trkpt>
      <trkpt lat="44.46949" lon="5.06016">
        <ele>720.65</ele>
        <time>2018-04-15T08:10:16Z</time>
      </trkpt>
      <trkpt lat="44.46962" lon="5.06017">
        <ele>723.53</ele>
        <time>2018-04-15T08:10:31Z</time>
      </trkpt>
      <trkpt lat="44.4697" lon="5.06018">
        <ele>725.93</ele>
        <time>2018-04-15T08:10:46Z</time>
      </trkpt>
      <trkpt lat="44.46977" lon="5.06009">
        <ele>728.34</ele>
        <time>2018-04-15T08:10:59Z</time>
      </trkpt>
      <trkpt lat="44.46982" lon="5.05994">
        <ele>730.26</ele>
        <time>2018-04-15T08:11:13Z</time>
      </trkpt>
      <trkpt lat="44.4699" lon="5.05985">
        <ele>731.7</ele>
        <time>2018-04-15T08:11:28Z</time>
      </trkpt>
      <trkpt lat="44.47001" lon="5.05995">
        <ele>733.14</ele>
        <time>2018-04-15T08:11:44Z</time>
      </trkpt>
      <trkpt lat="44.47005" lon="5.06009">
        <ele>733.62</ele>
        <time>2018-04-15T08:11:57Z</time>
      </trkpt>
      <trkpt lat="44.47005" lon="5.06008">
        <ele>733.62</ele>
        <time>2018-04-15T08:12:14Z</time>
      </trkpt>
      <trkpt lat="44.47003" lon="5.06017">
        <ele>735.07</ele>
        <time>2018-04-15T08:12:28Z</time>
      </trkpt>
      <trkpt lat="44.47005" lon="5.06032">
        <ele>736.99</ele>
        <time>2018-04-15T08:12:42Z</time>
      </trkpt>
      <trkpt lat="44.47007" lon="5.06044">
        <ele>740.35</ele>
        <time>2018-04-15T08:12:56Z</time>
      </trkpt>
      <trkpt lat="44.4701" lon="5.06057">
        <ele>742.76</ele>
        <time>2018-04-15T08:13:11Z</time>
      </trkpt>
      <trkpt lat="44.47012" lon="5.06065">
        <ele>746.12</ele>
        <time>2018-04-15T08:13:23Z</time>
      </trkpt>
      <trkpt lat="44.47013" lon="5.06068">
        <ele>746.6</ele>
        <time>2018-04-15T08:24:32Z</time>
      </trkpt>
      <trkpt lat="44.4701" lon="5.06077">
        <ele>748.04</ele>
        <time>2018-04-15T08:24:52Z</time>
      </trkpt>
      <trkpt lat="44.47012" lon="5.06087">
        <ele>750.93</ele>
        <time>2018-04-15T08:25:07Z</time>
      </trkpt>
      <trkpt lat="44.47013" lon="5.06104">
        <ele>752.37</ele>
        <time>2018-04-15T08:25:24Z</time>
      </trkpt>
      <trkpt lat="44.47011" lon="5.0612">
        <ele>755.73</ele>
        <time>2018-04-15T08:25:39Z</time>
      </trkpt>
      <trkpt lat="44.4701" lon="5.06136">
        <ele>758.62</ele>
        <time>2018-04-15T08:25:56Z</time>
      </trkpt>
      <trkpt lat="44.47011" lon="5.0615">
        <ele>760.54</ele>
        <time>2018-04-15T08:26:13Z</time>
      </trkpt>
      <trkpt lat="44.47012" lon="5.06168">
        <ele>763.42</ele>
        <time>2018-04-15T08:26:34Z</time>
      </trkpt>
      <trkpt lat="44.47013" lon="5.06186">
        <ele>765.83</ele>
        <time>2018-04-15T08:26:51Z</time>
      </trkpt>
      <trkpt lat="44.47015" lon="5.06202">
        <ele>767.75</ele>
        <time>2018-04-15T08:27:07Z</time>
      </trkpt>
      <trkpt lat="44.47019" lon="5.06222">
        <ele>769.67</ele>
        <time>2018-04-15T08:27:22Z</time>
      </trkpt>
      <trkpt lat="44.47021" lon="5.06235">
        <ele>772.08</ele>
        <time>2018-04-15T08:27:38Z</time>
      </trkpt>
      <trkpt lat="44.47027" lon="5.06249">
        <ele>774.96</ele>
        <time>2018-04-15T08:27:57Z</time>
      </trkpt>
      <trkpt lat="44.47029" lon="5.06264">
        <ele>776.88</ele>
        <time>2018-04-15T08:28:12Z</time>
      </trkpt>
      <trkpt lat="44.47033" lon="5.06275">
        <ele>779.77</ele>
        <time>2018-04-15T08:28:28Z</time>
      </trkpt>
      <trkpt lat="44.4704" lon="5.06286">
        <ele>780.73</ele>
        <time>2018-04-15T08:28:43Z</time>
      </trkpt>
      <trkpt lat="44.47045" lon="5.06293">
        <ele>784.09</ele>
        <time>2018-04-15T08:28:56Z</time>
      </trkpt>
      <trkpt lat="44.47054" lon="5.06304">
        <ele>787.46</ele>
        <time>2018-04-15T08:29:15Z</time>
      </trkpt>
      <trkpt lat="44.47065" lon="5.06308">
        <ele>789.38</ele>
        <time>2018-04-15T08:29:32Z</time>
      </trkpt>
      <trkpt lat="44.47074" lon="5.06313">
        <ele>791.3</ele>
        <time>2018-04-15T08:29:45Z</time>
      </trkpt>
      <trkpt lat="44.47081" lon="5.06318">
        <ele>792.74</ele>
        <time>2018-04-15T08:29:56Z</time>
      </trkpt>
      <trkpt lat="44.47091" lon="5.06325">
        <ele>795.63</ele>
        <time>2018-04-15T08:30:13Z</time>
      </trkpt>
      <trkpt lat="44.47096" lon="5.06334">
        <ele>798.51</ele>
        <time>2018-04-15T08:30:28Z</time>
      </trkpt>
      <trkpt lat="44.47103" lon="5.06347">
        <ele>800.92</ele>
        <time>2018-04-15T08:30:45Z</time>
      </trkpt>
      <trkpt lat="44.47108" lon="5.06363">
        <ele>803.8</ele>
        <time>2018-04-15T08:31:03Z</time>
      </trkpt>
      <trkpt lat="44.47108" lon="5.06376">
        <ele>806.2</ele>
        <time>2018-04-15T08:31:18Z</time>
      </trkpt>
      <trkpt lat="44.47109" lon="5.06391">
        <ele>809.57</ele>
        <time>2018-04-15T08:31:34Z</time>
      </trkpt>
      <trkpt lat="44.47113" lon="5.06402">
        <ele>811.49</ele>
        <time>2018-04-15T08:31:50Z</time>
      </trkpt>
      <trkpt lat="44.47123" lon="5.06409">
        <ele>814.85</ele>
        <time>2018-04-15T08:32:07Z</time>
      </trkpt>
      <trkpt lat="44.47131" lon="5.06416">
        <ele>817.26</ele>
        <time>2018-04-15T08:32:21Z</time>
      </trkpt>
      <trkpt lat="44.47138" lon="5.06422">
        <ele>819.18</ele>
        <time>2018-04-15T08:32:35Z</time>
      </trkpt>
      <trkpt lat="44.47145" lon="5.06431">
        <ele>822.06</ele>
        <time>2018-04-15T08:32:51Z</time>
      </trkpt>
      <trkpt lat="44.47151" lon="5.06442">
        <ele>823.99</ele>
        <time>2018-04-15T08:33:06Z</time>
      </trkpt>
      <trkpt lat="44.47161" lon="5.06455">
        <ele>826.39</ele>
        <time>2018-04-15T08:33:23Z</time>
      </trkpt>
      <trkpt lat="44.4717" lon="5.06464">
        <ele>829.27</ele>
        <time>2018-04-15T08:33:40Z</time>
      </trkpt>
      <trkpt lat="44.47175" lon="5.06474">
        <ele>832.16</ele>
        <time>2018-04-15T08:33:55Z</time>
      </trkpt>
      <trkpt lat="44.47179" lon="5.06483">
        <ele>834.56</ele>
        <time>2018-04-15T08:34:11Z</time>
      </trkpt>
      <trkpt lat="44.47189" lon="5.06494">
        <ele>837.45</ele>
        <time>2018-04-15T08:34:29Z</time>
      </trkpt>
      <trkpt lat="44.47202" lon="5.06495">
        <ele>838.89</ele>
        <time>2018-04-15T08:34:44Z</time>
      </trkpt>
      <trkpt lat="44.47212" lon="5.0649">
        <ele>839.85</ele>
        <time>2018-04-15T08:34:59Z</time>
      </trkpt>
      <trkpt lat="44.47222" lon="5.0649">
        <ele>839.85</ele>
        <time>2018-04-15T08:35:12Z</time>
      </trkpt>
      <trkpt lat="44.47231" lon="5.0649">
        <ele>840.33</ele>
        <time>2018-04-15T08:35:25Z</time>
      </trkpt>
      <trkpt lat="44.47236" lon="5.06493">
        <ele>841.77</ele>
        <time>2018-04-15T08:35:42Z</time>
      </trkpt>
      <trkpt lat="44.47237" lon="5.06494">
        <ele>841.77</ele>
        <time>2018-04-15T08:36:00Z</time>
      </trkpt>
      <trkpt lat="44.47241" lon="5.06491">
        <ele>843.21</ele>
        <time>2018-04-15T08:36:18Z</time>
      </trkpt>
      <trkpt lat="44.47253" lon="5.06488">
        <ele>846.1</ele>
        <time>2018-04-15T08:36:33Z</time>
      </trkpt>
      <trkpt lat="44.47259" lon="5.06482">
        <ele>848.98</ele>
        <time>2018-04-15T08:36:47Z</time>
      </trkpt>
      <trkpt lat="44.47271" lon="5.06481">
        <ele>850.9</ele>
        <time>2018-04-15T08:37:05Z</time>
      </trkpt>
      <trkpt lat="44.4728" lon="5.0648">
        <ele>851.87</ele>
        <time>2018-04-15T08:37:19Z</time>
      </trkpt>
      <trkpt lat="44.47289" lon="5.06479">
        <ele>853.79</ele>
        <time>2018-04-15T08:37:34Z</time>
      </trkpt>
      <trkpt lat="44.473" lon="5.06479">
        <ele>856.19</ele>
        <time>2018-04-15T08:37:49Z</time>
      </trkpt>
      <trkpt lat="44.473" lon="5.06483">
        <ele>857.15</ele>
        <time>2018-04-15T08:38:06Z</time>
      </trkpt>
      <trkpt lat="44.47295" lon="5.06492">
        <ele>859.08</ele>
        <time>2018-04-15T08:38:21Z</time>
      </trkpt>
      <trkpt lat="44.47288" lon="5.06498">
        <ele>861.48</ele>
        <time>2018-04-15T08:38:36Z</time>
      </trkpt>
      <trkpt lat="44.47277" lon="5.06504">
        <ele>863.4</ele>
        <time>2018-04-15T08:38:52Z</time>
      </trkpt>
      <trkpt lat="44.47267" lon="5.06513">
        <ele>865.8</ele>
        <time>2018-04-15T08:39:09Z</time>
      </trkpt>
      <trkpt lat="44.47261" lon="5.06528">
        <ele>868.21</ele>
        <time>2018-04-15T08:39:27Z</time>
      </trkpt>
      <trkpt lat="44.47258" lon="5.0654">
        <ele>871.09</ele>
        <time>2018-04-15T08:39:42Z</time>
      </trkpt>
      <trkpt lat="44.47256" lon="5.06553">
        <ele>873.5</ele>
        <time>2018-04-15T08:39:58Z</time>
      </trkpt>
      <trkpt lat="44.47255" lon="5.06567">
        <ele>875.9</ele>
        <time>2018-04-15T08:40:13Z</time>
      </trkpt>
      <trkpt lat="44.47256" lon="5.06578">
        <ele>878.3</ele>
        <time>2018-04-15T08:40:26Z</time>
      </trkpt>
      <trkpt lat="44.47259" lon="5.06597">
        <ele>880.22</ele>
        <time>2018-04-15T08:40:44Z</time>
      </trkpt>
      <trkpt lat="44.47258" lon="5.06611">
        <ele>881.67</ele>
        <time>2018-04-15T08:40:59Z</time>
      </trkpt>
      <trkpt lat="44.47261" lon="5.06622">
        <ele>883.11</ele>
        <time>2018-04-15T08:41:15Z</time>
      </trkpt>
      <trkpt lat="44.47263" lon="5.06629">
        <ele>885.03</ele>
        <time>2018-04-15T08:41:32Z</time>
      </trkpt>
      <trkpt lat="44.47263" lon="5.0663">
        <ele>886.47</ele>
        <time>2018-04-15T08:41:35Z</time>
      </trkpt>
      <trkpt lat="44.47266" lon="5.06641">
        <ele>887.91</ele>
        <time>2018-04-15T08:41:50Z</time>
      </trkpt>
      <trkpt lat="44.47269" lon="5.06652">
        <ele>891.28</ele>
        <time>2018-04-15T08:42:05Z</time>
      </trkpt>
      <trkpt lat="44.4727" lon="5.06665">
        <ele>893.68</ele>
        <time>2018-04-15T08:42:22Z</time>
      </trkpt>
      <trkpt lat="44.47271" lon="5.06671">
        <ele>896.09</ele>
        <time>2018-04-15T08:42:29Z</time>
      </trkpt>
      <trkpt lat="44.47274" lon="5.06673">
        <ele>897.05</ele>
        <time>2018-04-15T08:43:47Z</time>
      </trkpt>
      <trkpt lat="44.47267" lon="5.06689">
        <ele>899.45</ele>
        <time>2018-04-15T08:44:03Z</time>
      </trkpt>
      <trkpt lat="44.47255" lon="5.06701">
        <ele>900.41</ele>
        <time>2018-04-15T08:44:20Z</time>
      </trkpt>
      <trkpt lat="44.47244" lon="5.06708">
        <ele>901.85</ele>
        <time>2018-04-15T08:44:34Z</time>
      </trkpt>
      <trkpt lat="44.47238" lon="5.06711">
        <ele>902.33</ele>
        <time>2018-04-15T08:44:40Z</time>
      </trkpt>
      <trkpt lat="44.47226" lon="5.06717">
        <ele>903.78</ele>
        <time>2018-04-15T08:44:53Z</time>
      </trkpt>
      <trkpt lat="44.47213" lon="5.06722">
        <ele>904.26</ele>
        <time>2018-04-15T08:45:05Z</time>
      </trkpt>
      <trkpt lat="44.472" lon="5.0673">
        <ele>905.22</ele>
        <time>2018-04-15T08:45:19Z</time>
      </trkpt>
      <trkpt lat="44.47195" lon="5.06733">
        <ele>906.18</ele>
        <time>2018-04-15T08:45:36Z</time>
      </trkpt>
      <trkpt lat="44.47189" lon="5.06737">
        <ele>907.62</ele>
        <time>2018-04-15T08:47:31Z</time>
      </trkpt>
      <trkpt lat="44.47186" lon="5.0674">
        <ele>908.1</ele>
        <time>2018-04-15T08:47:37Z</time>
      </trkpt>
      <trkpt lat="44.47171" lon="5.06754">
        <ele>909.54</ele>
        <time>2018-04-15T08:47:56Z</time>
      </trkpt>
      <trkpt lat="44.47158" lon="5.06762">
        <ele>911.47</ele>
        <time>2018-04-15T08:48:13Z</time>
      </trkpt>
      <trkpt lat="44.47148" lon="5.06762">
        <ele>912.91</ele>
        <time>2018-04-15T08:48:27Z</time>
      </trkpt>
      <trkpt lat="44.47136" lon="5.06763">
        <ele>915.31</ele>
        <time>2018-04-15T08:48:41Z</time>
      </trkpt>
      <trkpt lat="44.47125" lon="5.06773">
        <ele>916.75</ele>
        <time>2018-04-15T08:48:57Z</time>
      </trkpt>
      <trkpt lat="44.47114" lon="5.06776">
        <ele>917.24</ele>
        <time>2018-04-15T08:49:11Z</time>
      </trkpt>
      <trkpt lat="44.47112" lon="5.06781">
        <ele>917.72</ele>
        <time>2018-04-15T08:50:00Z</time>
      </trkpt>
      <trkpt lat="44.4711" lon="5.06782">
        <ele>917.72</ele>
        <time>2018-04-15T08:50:17Z</time>
      </trkpt>
      <trkpt lat="44.47106" lon="5.06791">
        <ele>917.72</ele>
        <time>2018-04-15T08:50:30Z</time>
      </trkpt>
      <trkpt lat="44.47098" lon="5.06801">
        <ele>917.72</ele>
        <time>2018-04-15T08:56:24Z</time>
      </trkpt>
      <trkpt lat="44.47095" lon="5.068">
        <ele>916.27</ele>
        <time>2018-04-15T08:56:28Z</time>
      </trkpt>
      <trkpt lat="44.47088" lon="5.068">
        <ele>914.83</ele>
        <time>2018-04-15T08:57:14Z</time>
      </trkpt>
      <trkpt lat="44.47087" lon="5.06802">
        <ele>916.27</ele>
        <time>2018-04-15T08:57:30Z</time>
      </trkpt>
      <trkpt lat="44.47083" lon="5.06802">
        <ele>918.68</ele>
        <time>2018-04-15T08:57:44Z</time>
      </trkpt>
      <trkpt lat="44.47076" lon="5.06803">
        <ele>920.6</ele>
        <time>2018-04-15T08:57:55Z</time>
      </trkpt>
      <trkpt lat="44.47069" lon="5.06803">
        <ele>923.48</ele>
        <time>2018-04-15T08:58:09Z</time>
      </trkpt>
      <trkpt lat="44.47064" lon="5.06809">
        <ele>926.85</ele>
        <time>2018-04-15T08:58:24Z</time>
      </trkpt>
      <trkpt lat="44.47056" lon="5.06819">
        <ele>929.25</ele>
        <time>2018-04-15T08:58:40Z</time>
      </trkpt>
      <trkpt lat="44.47052" lon="5.06822">
        <ele>931.65</ele>
        <time>2018-04-15T08:58:53Z</time>
      </trkpt>
      <trkpt lat="44.47047" lon="5.06827">
        <ele>934.06</ele>
        <time>2018-04-15T08:59:08Z</time>
      </trkpt>
      <trkpt lat="44.47042" lon="5.06833">
        <ele>935.5</ele>
        <time>2018-04-15T08:59:21Z</time>
      </trkpt>
      <trkpt lat="44.47035" lon="5.0684">
        <ele>938.86</ele>
        <time>2018-04-15T08:59:36Z</time>
      </trkpt>
      <trkpt lat="44.47029" lon="5.06844">
        <ele>941.27</ele>
        <time>2018-04-15T08:59:50Z</time>
      </trkpt>
      <trkpt lat="44.47021" lon="5.06847">
        <ele>943.67</ele>
        <time>2018-04-15T09:00:05Z</time>
      </trkpt>
      <trkpt lat="44.47017" lon="5.06849">
        <ele>944.15</ele>
        <time>2018-04-15T09:00:22Z</time>
      </trkpt>
      <trkpt lat="44.47017" lon="5.06853">
        <ele>945.11</ele>
        <time>2018-04-15T09:00:54Z</time>
      </trkpt>
      <trkpt lat="44.47015" lon="5.06848">
        <ele>945.11</ele>
        <time>2018-04-15T09:01:06Z</time>
      </trkpt>
      <trkpt lat="44.4701" lon="5.06851">
        <ele>945.59</ele>
        <time>2018-04-15T09:01:19Z</time>
      </trkpt>
      <trkpt lat="44.46999" lon="5.06859">
        <ele>946.56</ele>
        <time>2018-04-15T09:01:33Z</time>
      </trkpt>
      <trkpt lat="44.46991" lon="5.06866">
        <ele>948</ele>
        <time>2018-04-15T09:01:48Z</time>
      </trkpt>
      <trkpt lat="44.46987" lon="5.06873">
        <ele>949.44</ele>
        <time>2018-04-15T09:02:02Z</time>
      </trkpt>
      <trkpt lat="44.46984" lon="5.06882">
        <ele>949.44</ele>
        <time>2018-04-15T09:02:25Z</time>
      </trkpt>
      <trkpt lat="44.46989" lon="5.06891">
        <ele>950.88</ele>
        <time>2018-04-15T09:02:37Z</time>
      </trkpt>
      <trkpt lat="44.46994" lon="5.06902">
        <ele>954.25</ele>
        <time>2018-04-15T09:02:51Z</time>
      </trkpt>
      <trkpt lat="44.4699" lon="5.06911">
        <ele>956.65</ele>
        <time>2018-04-15T09:03:05Z</time>
      </trkpt>
      <trkpt lat="44.46986" lon="5.06922">
        <ele>958.57</ele>
        <time>2018-04-15T09:03:18Z</time>
      </trkpt>
      <trkpt lat="44.46978" lon="5.06932">
        <ele>960.01</ele>
        <time>2018-04-15T09:03:33Z</time>
      </trkpt>
      <trkpt lat="44.46971" lon="5.0694">
        <ele>961.46</ele>
        <time>2018-04-15T09:03:47Z</time>
      </trkpt>
      <trkpt lat="44.46961" lon="5.0694">
        <ele>962.42</ele>
        <time>2018-04-15T09:04:00Z</time>
      </trkpt>
      <trkpt lat="44.46951" lon="5.06939">
        <ele>964.34</ele>
        <time>2018-04-15T09:04:14Z</time>
      </trkpt>
      <trkpt lat="44.4694" lon="5.06936">
        <ele>965.3</ele>
        <time>2018-04-15T09:04:26Z</time>
      </trkpt>
      <trkpt lat="44.46928" lon="5.06939">
        <ele>966.74</ele>
        <time>2018-04-15T09:04:37Z</time>
      </trkpt>
      <trkpt lat="44.46925" lon="5.06941">
        <ele>966.74</ele>
        <time>2018-04-15T09:04:42Z</time>
      </trkpt>
      <trkpt lat="44.46912" lon="5.06943">
        <ele>967.22</ele>
        <time>2018-04-15T09:04:55Z</time>
      </trkpt>
      <trkpt lat="44.46899" lon="5.06949">
        <ele>968.67</ele>
        <time>2018-04-15T09:05:09Z</time>
      </trkpt>
      <trkpt lat="44.46893" lon="5.0696">
        <ele>970.59</ele>
        <time>2018-04-15T09:05:22Z</time>
      </trkpt>
      <trkpt lat="44.46894" lon="5.06977">
        <ele>972.51</ele>
        <time>2018-04-15T09:05:37Z</time>
      </trkpt>
      <trkpt lat="44.46895" lon="5.06994">
        <ele>975.39</ele>
        <time>2018-04-15T09:05:51Z</time>
      </trkpt>
      <trkpt lat="44.46892" lon="5.07015">
        <ele>976.36</ele>
        <time>2018-04-15T09:06:05Z</time>
      </trkpt>
      <trkpt lat="44.46883" lon="5.07024">
        <ele>976.84</ele>
        <time>2018-04-15T09:06:18Z</time>
      </trkpt>
      <trkpt lat="44.46877" lon="5.07032">
        <ele>977.8</ele>
        <time>2018-04-15T09:06:31Z</time>
      </trkpt>
      <trkpt lat="44.46871" lon="5.0704">
        <ele>980.2</ele>
        <time>2018-04-15T09:06:44Z</time>
      </trkpt>
      <trkpt lat="44.4686" lon="5.07046">
        <ele>982.12</ele>
        <time>2018-04-15T09:06:59Z</time>
      </trkpt>
      <trkpt lat="44.4686" lon="5.07059">
        <ele>984.53</ele>
        <time>2018-04-15T09:07:18Z</time>
      </trkpt>
      <trkpt lat="44.4686" lon="5.07074">
        <ele>985.01</ele>
        <time>2018-04-15T09:07:29Z</time>
      </trkpt>
      <trkpt lat="44.46863" lon="5.07089">
        <ele>985.97</ele>
        <time>2018-04-15T09:07:41Z</time>
      </trkpt>
      <trkpt lat="44.46859" lon="5.07108">
        <ele>986.93</ele>
        <time>2018-04-15T09:07:53Z</time>
      </trkpt>
      <trkpt lat="44.46853" lon="5.0712">
        <ele>987.41</ele>
        <time>2018-04-15T09:08:04Z</time>
      </trkpt>
      <trkpt lat="44.46846" lon="5.07145">
        <ele>988.37</ele>
        <time>2018-04-15T09:08:19Z</time>
      </trkpt>
      <trkpt lat="44.46841" lon="5.07159">
        <ele>990.78</ele>
        <time>2018-04-15T09:08:31Z</time>
      </trkpt>
      <trkpt lat="44.46835" lon="5.07176">
        <ele>992.22</ele>
        <time>2018-04-15T09:08:45Z</time>
      </trkpt>
      <trkpt lat="44.46826" lon="5.07192">
        <ele>994.14</ele>
        <time>2018-04-15T09:09:01Z</time>
      </trkpt>
      <trkpt lat="44.46817" lon="5.07207">
        <ele>996.06</ele>
        <time>2018-04-15T09:09:16Z</time>
      </trkpt>
      <trkpt lat="44.46812" lon="5.07218">
        <ele>997.02</ele>
        <time>2018-04-15T09:09:29Z</time>
      </trkpt>
      <trkpt lat="44.46804" lon="5.07232">
        <ele>998.95</ele>
        <time>2018-04-15T09:09:44Z</time>
      </trkpt>
      <trkpt lat="44.46798" lon="5.07247">
        <ele>999.43</ele>
        <time>2018-04-15T09:09:59Z</time>
      </trkpt>
      <trkpt lat="44.46796" lon="5.07263">
        <ele>999.43</ele>
        <time>2018-04-15T09:10:11Z</time>
      </trkpt>
      <trkpt lat="44.46796" lon="5.07279">
        <ele>999.91</ele>
        <time>2018-04-15T09:10:25Z</time>
      </trkpt>
      <trkpt lat="44.46798" lon="5.07292">
        <ele>1000.87</ele>
        <time>2018-04-15T09:10:38Z</time>
      </trkpt>
      <trkpt lat="44.46799" lon="5.07308">
        <ele>1001.83</ele>
        <time>2018-04-15T09:10:53Z</time>
      </trkpt>
      <trkpt lat="44.46799" lon="5.07309">
        <ele>1002.31</ele>
        <time>2018-04-15T09:11:32Z</time>
      </trkpt>
      <trkpt lat="44.46792" lon="5.07321">
        <ele>1002.79</ele>
        <time>2018-04-15T09:11:46Z</time>
      </trkpt>
      <trkpt lat="44.46786" lon="5.07335">
        <ele>1004.23</ele>
        <time>2018-04-15T09:12:01Z</time>
      </trkpt>
      <trkpt lat="44.46774" lon="5.07348">
        <ele>1005.68</ele>
        <time>2018-04-15T09:12:14Z</time>
      </trkpt>
      <trkpt lat="44.4677" lon="5.07358">
        <ele>1007.6</ele>
        <time>2018-04-15T09:12:21Z</time>
      </trkpt>
      <trkpt lat="44.46767" lon="5.0738">
        <ele>1009.04</ele>
        <time>2018-04-15T09:12:38Z</time>
      </trkpt>
      <trkpt lat="44.46767" lon="5.07396">
        <ele>1012.41</ele>
        <time>2018-04-15T09:12:55Z</time>
      </trkpt>
      <trkpt lat="44.46769" lon="5.07411">
        <ele>1014.33</ele>
        <time>2018-04-15T09:13:09Z</time>
      </trkpt>
      <trkpt lat="44.46771" lon="5.07425">
        <ele>1016.73</ele>
        <time>2018-04-15T09:13:26Z</time>
      </trkpt>
      <trkpt lat="44.46772" lon="5.07442">
        <ele>1019.13</ele>
        <time>2018-04-15T09:13:42Z</time>
      </trkpt>
      <trkpt lat="44.46775" lon="5.07458">
        <ele>1021.54</ele>
        <time>2018-04-15T09:13:56Z</time>
      </trkpt>
      <trkpt lat="44.46776" lon="5.0747">
        <ele>1023.94</ele>
        <time>2018-04-15T09:14:10Z</time>
      </trkpt>
      <trkpt lat="44.46774" lon="5.07483">
        <ele>1026.34</ele>
        <time>2018-04-15T09:14:27Z</time>
      </trkpt>
      <trkpt lat="44.46775" lon="5.07496">
        <ele>1028.27</ele>
        <time>2018-04-15T09:14:40Z</time>
      </trkpt>
      <trkpt lat="44.46774" lon="5.07512">
        <ele>1031.15</ele>
        <time>2018-04-15T09:14:56Z</time>
      </trkpt>
      <trkpt lat="44.46772" lon="5.07521">
        <ele>1032.59</ele>
        <time>2018-04-15T09:15:08Z</time>
      </trkpt>
      <trkpt lat="44.46771" lon="5.07534">
        <ele>1035.48</ele>
        <time>2018-04-15T09:15:23Z</time>
      </trkpt>
      <trkpt lat="44.46769" lon="5.07547">
        <ele>1038.36</ele>
        <time>2018-04-15T09:15:38Z</time>
      </trkpt>
      <trkpt lat="44.46768" lon="5.07563">
        <ele>1040.76</ele>
        <time>2018-04-15T09:15:53Z</time>
      </trkpt>
      <trkpt lat="44.46763" lon="5.07578">
        <ele>1043.65</ele>
        <time>2018-04-15T09:16:10Z</time>
      </trkpt>
      <trkpt lat="44.46757" lon="5.07594">
        <ele>1045.57</ele>
        <time>2018-04-15T09:16:27Z</time>
      </trkpt>
      <trkpt lat="44.46758" lon="5.07612">
        <ele>1047.49</ele>
        <time>2018-04-15T09:16:43Z</time>
      </trkpt>
      <trkpt lat="44.46758" lon="5.07625">
        <ele>1048.94</ele>
        <time>2018-04-15T09:16:56Z</time>
      </trkpt>
      <trkpt lat="44.46756" lon="5.07643">
        <ele>1051.34</ele>
        <time>2018-04-15T09:17:15Z</time>
      </trkpt>
      <trkpt lat="44.46753" lon="5.0766">
        <ele>1052.78</ele>
        <time>2018-04-15T09:17:31Z</time>
      </trkpt>
      <trkpt lat="44.46749" lon="5.07674">
        <ele>1055.67</ele>
        <time>2018-04-15T09:17:47Z</time>
      </trkpt>
      <trkpt lat="44.46748" lon="5.07687">
        <ele>1058.07</ele>
        <time>2018-04-15T09:18:02Z</time>
      </trkpt>
      <trkpt lat="44.46744" lon="5.07703">
        <ele>1060.47</ele>
        <time>2018-04-15T09:18:19Z</time>
      </trkpt>
      <trkpt lat="44.4674" lon="5.07719">
        <ele>1062.39</ele>
        <time>2018-04-15T09:18:36Z</time>
      </trkpt>
      <trkpt lat="44.46737" lon="5.07736">
        <ele>1065.28</ele>
        <time>2018-04-15T09:18:56Z</time>
      </trkpt>
      <trkpt lat="44.46738" lon="5.07751">
        <ele>1066.72</ele>
        <time>2018-04-15T09:19:13Z</time>
      </trkpt>
      <trkpt lat="44.46736" lon="5.07767">
        <ele>1069.6</ele>
        <time>2018-04-15T09:19:30Z</time>
      </trkpt>
      <trkpt lat="44.46734" lon="5.07783">
        <ele>1072.49</ele>
        <time>2018-04-15T09:19:47Z</time>
      </trkpt>
      <trkpt lat="44.4673" lon="5.07798">
        <ele>1074.41</ele>
        <time>2018-04-15T09:20:03Z</time>
      </trkpt>
      <trkpt lat="44.46721" lon="5.07814">
        <ele>1076.33</ele>
        <time>2018-04-15T09:20:19Z</time>
      </trkpt>
      <trkpt lat="44.46713" lon="5.07829">
        <ele>1077.29</ele>
        <time>2018-04-15T09:20:34Z</time>
      </trkpt>
      <trkpt lat="44.46707" lon="5.07844">
        <ele>1077.78</ele>
        <time>2018-04-15T09:20:49Z</time>
      </trkpt>
      <trkpt lat="44.46697" lon="5.07854">
        <ele>1079.22</ele>
        <time>2018-04-15T09:21:03Z</time>
      </trkpt>
      <trkpt lat="44.46684" lon="5.07865">
        <ele>1079.22</ele>
        <time>2018-04-15T09:21:17Z</time>
      </trkpt>
      <trkpt lat="44.46675" lon="5.07876">
        <ele>1079.22</ele>
        <time>2018-04-15T09:21:30Z</time>
      </trkpt>
      <trkpt lat="44.46673" lon="5.0788">
        <ele>1077.78</ele>
        <time>2018-04-15T09:21:36Z</time>
      </trkpt>
      <trkpt lat="44.46666" lon="5.0789">
        <ele>1077.78</ele>
        <time>2018-04-15T09:21:49Z</time>
      </trkpt>
      <trkpt lat="44.46658" lon="5.07904">
        <ele>1077.78</ele>
        <time>2018-04-15T09:22:01Z</time>
      </trkpt>
      <trkpt lat="44.46652" lon="5.0791">
        <ele>1079.22</ele>
        <time>2018-04-15T09:22:11Z</time>
      </trkpt>
      <trkpt lat="44.4664" lon="5.07923">
        <ele>1079.7</ele>
        <time>2018-04-15T09:22:26Z</time>
      </trkpt>
      <trkpt lat="44.46632" lon="5.07932">
        <ele>1080.66</ele>
        <time>2018-04-15T09:22:38Z</time>
      </trkpt>
      <trkpt lat="44.46625" lon="5.07938">
        <ele>1081.14</ele>
        <time>2018-04-15T09:22:48Z</time>
      </trkpt>
      <trkpt lat="44.46614" lon="5.07948">
        <ele>1081.14</ele>
        <time>2018-04-15T09:23:02Z</time>
      </trkpt>
      <trkpt lat="44.46599" lon="5.07967">
        <ele>1083.06</ele>
        <time>2018-04-15T09:23:17Z</time>
      </trkpt>
      <trkpt lat="44.46589" lon="5.07974">
        <ele>1084.5</ele>
        <time>2018-04-15T09:23:31Z</time>
      </trkpt>
      <trkpt lat="44.46577" lon="5.07982">
        <ele>1085.47</ele>
        <time>2018-04-15T09:23:43Z</time>
      </trkpt>
      <trkpt lat="44.46572" lon="5.07987">
        <ele>1085.95</ele>
        <time>2018-04-15T09:23:50Z</time>
      </trkpt>
      <trkpt lat="44.46557" lon="5.07992">
        <ele>1085.47</ele>
        <time>2018-04-15T09:24:04Z</time>
      </trkpt>
      <trkpt lat="44.46547" lon="5.07996">
        <ele>1086.43</ele>
        <time>2018-04-15T09:24:14Z</time>
      </trkpt>
      <trkpt lat="44.4653" lon="5.07995">
        <ele>1088.35</ele>
        <time>2018-04-15T09:24:29Z</time>
      </trkpt>
      <trkpt lat="44.46513" lon="5.07993">
        <ele>1089.79</ele>
        <time>2018-04-15T09:24:44Z</time>
      </trkpt>
      <trkpt lat="44.46497" lon="5.08004">
        <ele>1091.23</ele>
        <time>2018-04-15T09:25:02Z</time>
      </trkpt>
      <trkpt lat="44.46488" lon="5.08016">
        <ele>1091.71</ele>
        <time>2018-04-15T09:25:19Z</time>
      </trkpt>
      <trkpt lat="44.46482" lon="5.08033">
        <ele>1093.16</ele>
        <time>2018-04-15T09:25:35Z</time>
      </trkpt>
      <trkpt lat="44.46478" lon="5.08053">
        <ele>1097</ele>
        <time>2018-04-15T09:25:54Z</time>
      </trkpt>
      <trkpt lat="44.46476" lon="5.08069">
        <ele>1098.92</ele>
        <time>2018-04-15T09:26:08Z</time>
      </trkpt>
      <trkpt lat="44.46477" lon="5.08084">
        <ele>1101.33</ele>
        <time>2018-04-15T09:26:25Z</time>
      </trkpt>
      <trkpt lat="44.4648" lon="5.08099">
        <ele>1104.21</ele>
        <time>2018-04-15T09:26:41Z</time>
      </trkpt>
      <trkpt lat="44.46484" lon="5.08106">
        <ele>1105.65</ele>
        <time>2018-04-15T09:26:54Z</time>
      </trkpt>
      <trkpt lat="44.4649" lon="5.08113">
        <ele>1109.02</ele>
        <time>2018-04-15T09:27:09Z</time>
      </trkpt>
      <trkpt lat="44.46502" lon="5.08118">
        <ele>1110.46</ele>
        <time>2018-04-15T09:27:23Z</time>
      </trkpt>
      <trkpt lat="44.46509" lon="5.0812">
        <ele>1112.38</ele>
        <time>2018-04-15T09:27:38Z</time>
      </trkpt>
      <trkpt lat="44.46519" lon="5.08122">
        <ele>1114.79</ele>
        <time>2018-04-15T09:27:53Z</time>
      </trkpt>
      <trkpt lat="44.46532" lon="5.08124">
        <ele>1116.71</ele>
        <time>2018-04-15T09:28:09Z</time>
      </trkpt>
      <trkpt lat="44.46542" lon="5.08124">
        <ele>1119.11</ele>
        <time>2018-04-15T09:28:24Z</time>
      </trkpt>
      <trkpt lat="44.46552" lon="5.08123">
        <ele>1122</ele>
        <time>2018-04-15T09:28:38Z</time>
      </trkpt>
      <trkpt lat="44.46563" lon="5.08126">
        <ele>1123.44</ele>
        <time>2018-04-15T09:28:53Z</time>
      </trkpt>
      <trkpt lat="44.4657" lon="5.08131">
        <ele>1123.92</ele>
        <time>2018-04-15T09:29:07Z</time>
      </trkpt>
      <trkpt lat="44.46569" lon="5.08142">
        <ele>1125.36</ele>
        <time>2018-04-15T09:34:39Z</time>
      </trkpt>
      <trkpt lat="44.46568" lon="5.08153">
        <ele>1125.84</ele>
        <time>2018-04-15T09:34:58Z</time>
      </trkpt>
      <trkpt lat="44.46564" lon="5.0817">
        <ele>1126.8</ele>
        <time>2018-04-15T09:35:14Z</time>
      </trkpt>
      <trkpt lat="44.46562" lon="5.08185">
        <ele>1128.73</ele>
        <time>2018-04-15T09:35:29Z</time>
      </trkpt>
      <trkpt lat="44.46556" lon="5.08202">
        <ele>1131.13</ele>
        <time>2018-04-15T09:35:46Z</time>
      </trkpt>
      <trkpt lat="44.46548" lon="5.08218">
        <ele>1133.05</ele>
        <time>2018-04-15T09:36:02Z</time>
      </trkpt>
      <trkpt lat="44.46539" lon="5.08234">
        <ele>1135.45</ele>
        <time>2018-04-15T09:36:18Z</time>
      </trkpt>
      <trkpt lat="44.46532" lon="5.08247">
        <ele>1136.42</ele>
        <time>2018-04-15T09:36:33Z</time>
      </trkpt>
      <trkpt lat="44.46522" lon="5.08262">
        <ele>1137.86</ele>
        <time>2018-04-15T09:36:49Z</time>
      </trkpt>
      <trkpt lat="44.46512" lon="5.08276">
        <ele>1139.3</ele>
        <time>2018-04-15T09:37:04Z</time>
      </trkpt>
      <trkpt lat="44.46503" lon="5.08289">
        <ele>1140.74</ele>
        <time>2018-04-15T09:37:19Z</time>
      </trkpt>
      <trkpt lat="44.46494" lon="5.083">
        <ele>1142.18</ele>
        <time>2018-04-15T09:37:33Z</time>
      </trkpt>
      <trkpt lat="44.46484" lon="5.08308">
        <ele>1143.63</ele>
        <time>2018-04-15T09:37:48Z</time>
      </trkpt>
      <trkpt lat="44.46475" lon="5.08313">
        <ele>1144.59</ele>
        <time>2018-04-15T09:38:02Z</time>
      </trkpt>
      <trkpt lat="44.46465" lon="5.08322">
        <ele>1146.03</ele>
        <time>2018-04-15T09:38:17Z</time>
      </trkpt>
      <trkpt lat="44.46454" lon="5.08332">
        <ele>1148.91</ele>
        <time>2018-04-15T09:38:33Z</time>
      </trkpt>
      <trkpt lat="44.46445" lon="5.08345">
        <ele>1150.35</ele>
        <time>2018-04-15T09:38:49Z</time>
      </trkpt>
      <trkpt lat="44.46439" lon="5.08357">
        <ele>1152.76</ele>
        <time>2018-04-15T09:39:03Z</time>
      </trkpt>
      <trkpt lat="44.46436" lon="5.08372">
        <ele>1155.16</ele>
        <time>2018-04-15T09:39:19Z</time>
      </trkpt>
      <trkpt lat="44.46436" lon="5.08388">
        <ele>1158.05</ele>
        <time>2018-04-15T09:39:36Z</time>
      </trkpt>
      <trkpt lat="44.46437" lon="5.08403">
        <ele>1160.93</ele>
        <time>2018-04-15T09:39:53Z</time>
      </trkpt>
      <trkpt lat="44.46438" lon="5.08417">
        <ele>1162.85</ele>
        <time>2018-04-15T09:40:07Z</time>
      </trkpt>
      <trkpt lat="44.46436" lon="5.08434">
        <ele>1166.22</ele>
        <time>2018-04-15T09:40:25Z</time>
      </trkpt>
      <trkpt lat="44.46435" lon="5.08441">
        <ele>1167.18</ele>
        <time>2018-04-15T09:40:34Z</time>
      </trkpt>
      <trkpt lat="44.46434" lon="5.08461">
        <ele>1170.06</ele>
        <time>2018-04-15T09:40:50Z</time>
      </trkpt>
      <trkpt lat="44.46434" lon="5.08477">
        <ele>1171.98</ele>
        <time>2018-04-15T09:41:05Z</time>
      </trkpt>
      <trkpt lat="44.46435" lon="5.0849">
        <ele>1173.91</ele>
        <time>2018-04-15T09:41:17Z</time>
      </trkpt>
      <trkpt lat="44.46438" lon="5.08506">
        <ele>1176.79</ele>
        <time>2018-04-15T09:41:34Z</time>
      </trkpt>
      <trkpt lat="44.46443" lon="5.08522">
        <ele>1178.71</ele>
        <time>2018-04-15T09:41:50Z</time>
      </trkpt>
      <trkpt lat="44.46448" lon="5.08535">
        <ele>1182.08</ele>
        <time>2018-04-15T09:42:05Z</time>
      </trkpt>
      <trkpt lat="44.46452" lon="5.08547">
        <ele>1183.52</ele>
        <time>2018-04-15T09:42:18Z</time>
      </trkpt>
      <trkpt lat="44.46456" lon="5.08558">
        <ele>1186.4</ele>
        <time>2018-04-15T09:42:32Z</time>
      </trkpt>
      <trkpt lat="44.46462" lon="5.08574">
        <ele>1188.81</ele>
        <time>2018-04-15T09:42:48Z</time>
      </trkpt>
      <trkpt lat="44.46467" lon="5.08589">
        <ele>1190.73</ele>
        <time>2018-04-15T09:43:04Z</time>
      </trkpt>
      <trkpt lat="44.46473" lon="5.08604">
        <ele>1194.09</ele>
        <time>2018-04-15T09:43:21Z</time>
      </trkpt>
      <trkpt lat="44.46477" lon="5.0862">
        <ele>1196.5</ele>
        <time>2018-04-15T09:43:37Z</time>
      </trkpt>
      <trkpt lat="44.46479" lon="5.08635">
        <ele>1198.42</ele>
        <time>2018-04-15T09:43:51Z</time>
      </trkpt>
      <trkpt lat="44.46479" lon="5.08646">
        <ele>1200.82</ele>
        <time>2018-04-15T09:44:02Z</time>
      </trkpt>
      <trkpt lat="44.4648" lon="5.08663">
        <ele>1201.79</ele>
        <time>2018-04-15T09:44:17Z</time>
      </trkpt>
      <trkpt lat="44.46481" lon="5.0868">
        <ele>1203.23</ele>
        <time>2018-04-15T09:44:32Z</time>
      </trkpt>
      <trkpt lat="44.46482" lon="5.08691">
        <ele>1204.67</ele>
        <time>2018-04-15T09:44:40Z</time>
      </trkpt>
      <trkpt lat="44.46483" lon="5.08703">
        <ele>1206.11</ele>
        <time>2018-04-15T09:44:56Z</time>
      </trkpt>
      <trkpt lat="44.46483" lon="5.08703">
        <ele>1206.59</ele>
        <time>2018-04-15T09:45:11Z</time>
      </trkpt>
      <trkpt lat="44.46485" lon="5.08713">
        <ele>1206.59</ele>
        <time>2018-04-15T09:45:24Z</time>
      </trkpt>
      <trkpt lat="44.46487" lon="5.08725">
        <ele>1207.07</ele>
        <time>2018-04-15T09:45:35Z</time>
      </trkpt>
      <trkpt lat="44.46489" lon="5.08736">
        <ele>1207.55</ele>
        <time>2018-04-15T09:45:45Z</time>
      </trkpt>
      <trkpt lat="44.46494" lon="5.08746">
        <ele>1209</ele>
        <time>2018-04-15T09:45:54Z</time>
      </trkpt>
      <trkpt lat="44.465" lon="5.08767">
        <ele>1210.92</ele>
        <time>2018-04-15T09:46:10Z</time>
      </trkpt>
      <trkpt lat="44.46504" lon="5.08785">
        <ele>1212.84</ele>
        <time>2018-04-15T09:46:26Z</time>
      </trkpt>
      <trkpt lat="44.46509" lon="5.088">
        <ele>1215.24</ele>
        <time>2018-04-15T09:46:41Z</time>
      </trkpt>
      <trkpt lat="44.46513" lon="5.08808">
        <ele>1216.69</ele>
        <time>2018-04-15T09:46:50Z</time>
      </trkpt>
      <trkpt lat="44.46513" lon="5.08811">
        <ele>1216.69</ele>
        <time>2018-04-15T09:46:52Z</time>
      </trkpt>
      <trkpt lat="44.46518" lon="5.08825">
        <ele>1219.09</ele>
        <time>2018-04-15T09:47:07Z</time>
      </trkpt>
      <trkpt lat="44.46525" lon="5.08838">
        <ele>1221.97</ele>
        <time>2018-04-15T09:47:24Z</time>
      </trkpt>
      <trkpt lat="44.46528" lon="5.08848">
        <ele>1223.9</ele>
        <time>2018-04-15T09:47:37Z</time>
      </trkpt>
      <trkpt lat="44.46529" lon="5.08865">
        <ele>1226.3</ele>
        <time>2018-04-15T09:47:53Z</time>
      </trkpt>
      <trkpt lat="44.46529" lon="5.08866">
        <ele>1226.3</ele>
        <time>2018-04-15T09:47:54Z</time>
      </trkpt>
      <trkpt lat="44.46526" lon="5.08885">
        <ele>1227.74</ele>
        <time>2018-04-15T09:48:11Z</time>
      </trkpt>
      <trkpt lat="44.46523" lon="5.08902">
        <ele>1229.66</ele>
        <time>2018-04-15T09:48:26Z</time>
      </trkpt>
      <trkpt lat="44.46521" lon="5.08916">
        <ele>1231.59</ele>
        <time>2018-04-15T09:48:41Z</time>
      </trkpt>
      <trkpt lat="44.46522" lon="5.08933">
        <ele>1234.47</ele>
        <time>2018-04-15T09:48:58Z</time>
      </trkpt>
      <trkpt lat="44.46524" lon="5.08947">
        <ele>1236.87</ele>
        <time>2018-04-15T09:49:15Z</time>
      </trkpt>
      <trkpt lat="44.46526" lon="5.08958">
        <ele>1239.28</ele>
        <time>2018-04-15T09:49:31Z</time>
      </trkpt>
      <trkpt lat="44.46529" lon="5.08972">
        <ele>1242.16</ele>
        <time>2018-04-15T09:49:46Z</time>
      </trkpt>
      <trkpt lat="44.46531" lon="5.08984">
        <ele>1245.53</ele>
        <time>2018-04-15T09:50:04Z</time>
      </trkpt>
      <trkpt lat="44.46535" lon="5.09">
        <ele>1247.45</ele>
        <time>2018-04-15T09:50:21Z</time>
      </trkpt>
      <trkpt lat="44.46535" lon="5.09009">
        <ele>1248.89</ele>
        <time>2018-04-15T09:50:29Z</time>
      </trkpt>
      <trkpt lat="44.46528" lon="5.09024">
        <ele>1250.33</ele>
        <time>2018-04-15T09:50:43Z</time>
      </trkpt>
      <trkpt lat="44.46525" lon="5.09034">
        <ele>1250.81</ele>
        <time>2018-04-15T09:50:55Z</time>
      </trkpt>
      <trkpt lat="44.46521" lon="5.09039">
        <ele>1251.29</ele>
        <time>2018-04-15T09:51:08Z</time>
      </trkpt>
      <trkpt lat="44.46516" lon="5.09055">
        <ele>1252.74</ele>
        <time>2018-04-15T09:51:23Z</time>
      </trkpt>
      <trkpt lat="44.46511" lon="5.0907">
        <ele>1252.74</ele>
        <time>2018-04-15T09:51:36Z</time>
      </trkpt>
      <trkpt lat="44.46509" lon="5.09077">
        <ele>1253.22</ele>
        <time>2018-04-15T09:51:42Z</time>
      </trkpt>
      <trkpt lat="44.46508" lon="5.0908">
        <ele>1253.7</ele>
        <time>2018-04-15T09:51:45Z</time>
      </trkpt>
      <trkpt lat="44.46504" lon="5.091">
        <ele>1256.58</ele>
        <time>2018-04-15T09:52:01Z</time>
      </trkpt>
      <trkpt lat="44.46498" lon="5.09119">
        <ele>1258.02</ele>
        <time>2018-04-15T09:52:16Z</time>
      </trkpt>
      <trkpt lat="44.46491" lon="5.09137">
        <ele>1258.5</ele>
        <time>2018-04-15T09:52:31Z</time>
      </trkpt>
      <trkpt lat="44.46487" lon="5.09143">
        <ele>1259.46</ele>
        <time>2018-04-15T09:52:44Z</time>
      </trkpt>
      <trkpt lat="44.4648" lon="5.09155">
        <ele>1259.94</ele>
        <time>2018-04-15T09:52:58Z</time>
      </trkpt>
      <trkpt lat="44.46472" lon="5.09173">
        <ele>1260.91</ele>
        <time>2018-04-15T09:53:14Z</time>
      </trkpt>
      <trkpt lat="44.46469" lon="5.09189">
        <ele>1262.83</ele>
        <time>2018-04-15T09:53:27Z</time>
      </trkpt>
      <trkpt lat="44.46469" lon="5.0919">
        <ele>1262.83</ele>
        <time>2018-04-15T09:53:28Z</time>
      </trkpt>
      <trkpt lat="44.46466" lon="5.09202">
        <ele>1264.75</ele>
        <time>2018-04-15T09:53:39Z</time>
      </trkpt>
      <trkpt lat="44.46459" lon="5.09221">
        <ele>1264.75</ele>
        <time>2018-04-15T09:53:55Z</time>
      </trkpt>
      <trkpt lat="44.46456" lon="5.09228">
        <ele>1263.79</ele>
        <time>2018-04-15T09:54:00Z</time>
      </trkpt>
      <trkpt lat="44.46449" lon="5.09246">
        <ele>1265.23</ele>
        <time>2018-04-15T09:54:16Z</time>
      </trkpt>
      <trkpt lat="44.46445" lon="5.09262">
        <ele>1267.64</ele>
        <time>2018-04-15T09:54:31Z</time>
      </trkpt>
      <trkpt lat="44.46444" lon="5.09265">
        <ele>1268.12</ele>
        <time>2018-04-15T09:54:35Z</time>
      </trkpt>
      <trkpt lat="44.46442" lon="5.0927">
        <ele>1268.6</ele>
        <time>2018-04-15T09:54:39Z</time>
      </trkpt>
      <trkpt lat="44.46441" lon="5.09274">
        <ele>1269.08</ele>
        <time>2018-04-15T09:54:43Z</time>
      </trkpt>
      <trkpt lat="44.46438" lon="5.09282">
        <ele>1270.04</ele>
        <time>2018-04-15T09:54:50Z</time>
      </trkpt>
      <trkpt lat="44.46432" lon="5.09299">
        <ele>1270.52</ele>
        <time>2018-04-15T09:55:04Z</time>
      </trkpt>
      <trkpt lat="44.46427" lon="5.09321">
        <ele>1271</ele>
        <time>2018-04-15T09:55:20Z</time>
      </trkpt>
      <trkpt lat="44.46431" lon="5.09342">
        <ele>1271</ele>
        <time>2018-04-15T09:55:35Z</time>
      </trkpt>
      <trkpt lat="44.46431" lon="5.0936">
        <ele>1271.48</ele>
        <time>2018-04-15T09:55:49Z</time>
      </trkpt>
      <trkpt lat="44.4643" lon="5.09372">
        <ele>1274.85</ele>
        <time>2018-04-15T09:56:03Z</time>
      </trkpt>
      <trkpt lat="44.4643" lon="5.09386">
        <ele>1277.73</ele>
        <time>2018-04-15T09:56:19Z</time>
      </trkpt>
      <trkpt lat="44.46429" lon="5.09399">
        <ele>1279.65</ele>
        <time>2018-04-15T09:56:33Z</time>
      </trkpt>
      <trkpt lat="44.46422" lon="5.09413">
        <ele>1281.57</ele>
        <time>2018-04-15T09:56:47Z</time>
      </trkpt>
      <trkpt lat="44.46419" lon="5.09424">
        <ele>1282.54</ele>
        <time>2018-04-15T09:56:59Z</time>
      </trkpt>
      <trkpt lat="44.46419" lon="5.09433">
        <ele>1283.98</ele>
        <time>2018-04-15T09:57:13Z</time>
      </trkpt>
      <trkpt lat="44.46421" lon="5.09434">
        <ele>1284.46</ele>
        <time>2018-04-15T09:57:33Z</time>
      </trkpt>
      <trkpt lat="44.46419" lon="5.09435">
        <ele>1284.46</ele>
        <time>2018-04-15T09:57:51Z</time>
      </trkpt>
      <trkpt lat="44.46411" lon="5.09443">
        <ele>1287.82</ele>
        <time>2018-04-15T09:58:08Z</time>
      </trkpt>
      <trkpt lat="44.46404" lon="5.09451">
        <ele>1289.75</ele>
        <time>2018-04-15T09:58:21Z</time>
      </trkpt>
      <trkpt lat="44.46399" lon="5.09457">
        <ele>1292.63</ele>
        <time>2018-04-15T09:58:35Z</time>
      </trkpt>
      <trkpt lat="44.464" lon="5.09467">
        <ele>1295.03</ele>
        <time>2018-04-15T09:58:49Z</time>
      </trkpt>
      <trkpt lat="44.46397" lon="5.09477">
        <ele>1297.44</ele>
        <time>2018-04-15T09:59:05Z</time>
      </trkpt>
      <trkpt lat="44.46395" lon="5.09478">
        <ele>1297.92</ele>
        <time>2018-04-15T09:59:24Z</time>
      </trkpt>
      <trkpt lat="44.46396" lon="5.09478">
        <ele>1297.92</ele>
        <time>2018-04-15T09:59:52Z</time>
      </trkpt>
      <trkpt lat="44.46394" lon="5.09489">
        <ele>1296.48</ele>
        <time>2018-04-15T10:00:07Z</time>
      </trkpt>
      <trkpt lat="44.46394" lon="5.09503">
        <ele>1296.96</ele>
        <time>2018-04-15T10:00:20Z</time>
      </trkpt>
      <trkpt lat="44.46389" lon="5.09513">
        <ele>1299.84</ele>
        <time>2018-04-15T10:00:32Z</time>
      </trkpt>
      <trkpt lat="44.46379" lon="5.09527">
        <ele>1299.36</ele>
        <time>2018-04-15T10:00:48Z</time>
      </trkpt>
      <trkpt lat="44.4637" lon="5.09536">
        <ele>1300.32</ele>
        <time>2018-04-15T10:01:02Z</time>
      </trkpt>
      <trkpt lat="44.46366" lon="5.0954">
        <ele>1301.28</ele>
        <time>2018-04-15T10:01:16Z</time>
      </trkpt>
      <trkpt lat="44.4636" lon="5.09548">
        <ele>1302.24</ele>
        <time>2018-04-15T10:01:30Z</time>
      </trkpt>
      <trkpt lat="44.46349" lon="5.09559">
        <ele>1303.2</ele>
        <time>2018-04-15T10:01:47Z</time>
      </trkpt>
      <trkpt lat="44.46336" lon="5.09573">
        <ele>1304.17</ele>
        <time>2018-04-15T10:02:04Z</time>
      </trkpt>
      <trkpt lat="44.46324" lon="5.09587">
        <ele>1304.65</ele>
        <time>2018-04-15T10:02:19Z</time>
      </trkpt>
      <trkpt lat="44.46312" lon="5.09599">
        <ele>1304.65</ele>
        <time>2018-04-15T10:02:33Z</time>
      </trkpt>
      <trkpt lat="44.463" lon="5.09611">
        <ele>1304.65</ele>
        <time>2018-04-15T10:02:47Z</time>
      </trkpt>
      <trkpt lat="44.46284" lon="5.09622">
        <ele>1305.13</ele>
        <time>2018-04-15T10:03:03Z</time>
      </trkpt>
      <trkpt lat="44.46266" lon="5.09632">
        <ele>1305.13</ele>
        <time>2018-04-15T10:03:21Z</time>
      </trkpt>
      <trkpt lat="44.4625" lon="5.09643">
        <ele>1305.13</ele>
        <time>2018-04-15T10:03:37Z</time>
      </trkpt>
      <trkpt lat="44.4623" lon="5.0965">
        <ele>1305.13</ele>
        <time>2018-04-15T10:03:55Z</time>
      </trkpt>
      <trkpt lat="44.46213" lon="5.09657">
        <ele>1304.17</ele>
        <time>2018-04-15T10:04:14Z</time>
      </trkpt>
      <trkpt lat="44.46204" lon="5.09662">
        <ele>1304.17</ele>
        <time>2018-04-15T10:04:28Z</time>
      </trkpt>
      <trkpt lat="44.46188" lon="5.09668">
        <ele>1305.61</ele>
        <time>2018-04-15T10:04:43Z</time>
      </trkpt>
      <trkpt lat="44.46171" lon="5.09676">
        <ele>1306.57</ele>
        <time>2018-04-15T10:04:59Z</time>
      </trkpt>
      <trkpt lat="44.4616" lon="5.09682">
        <ele>1308.01</ele>
        <time>2018-04-15T10:05:11Z</time>
      </trkpt>
      <trkpt lat="44.46148" lon="5.09689">
        <ele>1310.41</ele>
        <time>2018-04-15T10:05:25Z</time>
      </trkpt>
      <trkpt lat="44.46138" lon="5.09696">
        <ele>1312.82</ele>
        <time>2018-04-15T10:05:39Z</time>
      </trkpt>
      <trkpt lat="44.46127" lon="5.09702">
        <ele>1315.22</ele>
        <time>2018-04-15T10:05:53Z</time>
      </trkpt>
      <trkpt lat="44.46115" lon="5.09711">
        <ele>1317.62</ele>
        <time>2018-04-15T10:06:10Z</time>
      </trkpt>
      <trkpt lat="44.46104" lon="5.09719">
        <ele>1320.03</ele>
        <time>2018-04-15T10:06:26Z</time>
      </trkpt>
      <trkpt lat="44.46092" lon="5.09727">
        <ele>1321.95</ele>
        <time>2018-04-15T10:06:42Z</time>
      </trkpt>
      <trkpt lat="44.46084" lon="5.09732">
        <ele>1323.39</ele>
        <time>2018-04-15T10:06:52Z</time>
      </trkpt>
      <trkpt lat="44.46072" lon="5.09743">
        <ele>1325.8</ele>
        <time>2018-04-15T10:07:08Z</time>
      </trkpt>
      <trkpt lat="44.46061" lon="5.09755">
        <ele>1326.28</ele>
        <time>2018-04-15T10:07:22Z</time>
      </trkpt>
      <trkpt lat="44.46047" lon="5.09767">
        <ele>1324.83</ele>
        <time>2018-04-15T10:07:37Z</time>
      </trkpt>
      <trkpt lat="44.46036" lon="5.09787">
        <ele>1324.35</ele>
        <time>2018-04-15T10:07:53Z</time>
      </trkpt>
      <trkpt lat="44.46021" lon="5.0981">
        <ele>1322.91</ele>
        <time>2018-04-15T10:08:11Z</time>
      </trkpt>
      <trkpt lat="44.46006" lon="5.09831">
        <ele>1321.95</ele>
        <time>2018-04-15T10:08:30Z</time>
      </trkpt>
      <trkpt lat="44.45993" lon="5.09849">
        <ele>1321.95</ele>
        <time>2018-04-15T10:08:46Z</time>
      </trkpt>
      <trkpt lat="44.45978" lon="5.09872">
        <ele>1321.95</ele>
        <time>2018-04-15T10:09:05Z</time>
      </trkpt>
      <trkpt lat="44.45965" lon="5.09891">
        <ele>1321.95</ele>
        <time>2018-04-15T10:09:22Z</time>
      </trkpt>
      <trkpt lat="44.45957" lon="5.09903">
        <ele>1323.39</ele>
        <time>2018-04-15T10:09:33Z</time>
      </trkpt>
      <trkpt lat="44.45948" lon="5.0992">
        <ele>1323.87</ele>
        <time>2018-04-15T10:09:48Z</time>
      </trkpt>
      <trkpt lat="44.4594" lon="5.09936">
        <ele>1325.31</ele>
        <time>2018-04-15T10:10:02Z</time>
      </trkpt>
      <trkpt lat="44.45931" lon="5.09949">
        <ele>1326.76</ele>
        <time>2018-04-15T10:10:16Z</time>
      </trkpt>
      <trkpt lat="44.4592" lon="5.09962">
        <ele>1328.68</ele>
        <time>2018-04-15T10:10:31Z</time>
      </trkpt>
      <trkpt lat="44.45909" lon="5.09973">
        <ele>1329.64</ele>
        <time>2018-04-15T10:10:44Z</time>
      </trkpt>
      <trkpt lat="44.45898" lon="5.09988">
        <ele>1331.08</ele>
        <time>2018-04-15T10:11:00Z</time>
      </trkpt>
      <trkpt lat="44.4589" lon="5.10002">
        <ele>1331.56</ele>
        <time>2018-04-15T10:11:14Z</time>
      </trkpt>
      <trkpt lat="44.45887" lon="5.10006">
        <ele>1329.64</ele>
        <time>2018-04-15T10:11:17Z</time>
      </trkpt>
      <trkpt lat="44.45873" lon="5.10018">
        <ele>1329.64</ele>
        <time>2018-04-15T10:11:32Z</time>
      </trkpt>
      <trkpt lat="44.45865" lon="5.10025">
        <ele>1331.08</ele>
        <time>2018-04-15T10:11:42Z</time>
      </trkpt>
      <trkpt lat="44.45853" lon="5.10033">
        <ele>1332.04</ele>
        <time>2018-04-15T10:11:56Z</time>
      </trkpt>
      <trkpt lat="44.45839" lon="5.10042">
        <ele>1332.52</ele>
        <time>2018-04-15T10:12:11Z</time>
      </trkpt>
      <trkpt lat="44.45824" lon="5.10051">
        <ele>1333.97</ele>
        <time>2018-04-15T10:12:27Z</time>
      </trkpt>
      <trkpt lat="44.45809" lon="5.1006">
        <ele>1333.97</ele>
        <time>2018-04-15T10:12:42Z</time>
      </trkpt>
      <trkpt lat="44.45791" lon="5.10064">
        <ele>1332.52</ele>
        <time>2018-04-15T10:12:59Z</time>
      </trkpt>
      <trkpt lat="44.45773" lon="5.10066">
        <ele>1332.04</ele>
        <time>2018-04-15T10:13:18Z</time>
      </trkpt>
      <trkpt lat="44.45755" lon="5.1007">
        <ele>1331.08</ele>
        <time>2018-04-15T10:13:35Z</time>
      </trkpt>
      <trkpt lat="44.45744" lon="5.10072">
        <ele>1330.12</ele>
        <time>2018-04-15T10:13:46Z</time>
      </trkpt>
      <trkpt lat="44.45739" lon="5.10076">
        <ele>1329.64</ele>
        <time>2018-04-15T10:14:01Z</time>
      </trkpt>
      <trkpt lat="44.45738" lon="5.10078">
        <ele>1331.08</ele>
        <time>2018-04-15T10:14:32Z</time>
      </trkpt>
      <trkpt lat="44.45728" lon="5.10078">
        <ele>1333.01</ele>
        <time>2018-04-15T10:14:49Z</time>
      </trkpt>
      <trkpt lat="44.4572" lon="5.10084">
        <ele>1335.41</ele>
        <time>2018-04-15T10:15:04Z</time>
      </trkpt>
      <trkpt lat="44.45716" lon="5.10086">
        <ele>1336.37</ele>
        <time>2018-04-15T10:15:12Z</time>
      </trkpt>
      <trkpt lat="44.45704" lon="5.10082">
        <ele>1336.37</ele>
        <time>2018-04-15T10:15:27Z</time>
      </trkpt>
      <trkpt lat="44.45702" lon="5.10081">
        <ele>1334.93</ele>
        <time>2018-04-15T10:15:30Z</time>
      </trkpt>
      <trkpt lat="44.45695" lon="5.10075">
        <ele>1333.49</ele>
        <time>2018-04-15T10:15:42Z</time>
      </trkpt>
      <trkpt lat="44.45692" lon="5.10073">
        <ele>1332.04</ele>
        <time>2018-04-15T10:15:45Z</time>
      </trkpt>
      <trkpt lat="44.45684" lon="5.10071">
        <ele>1330.6</ele>
        <time>2018-04-15T10:15:53Z</time>
      </trkpt>
      <trkpt lat="44.45669" lon="5.10077">
        <ele>1330.6</ele>
        <time>2018-04-15T10:16:08Z</time>
      </trkpt>
      <trkpt lat="44.45661" lon="5.10081">
        <ele>1332.04</ele>
        <time>2018-04-15T10:16:16Z</time>
      </trkpt>
      <trkpt lat="44.45658" lon="5.10084">
        <ele>1332.04</ele>
        <time>2018-04-15T10:16:20Z</time>
      </trkpt>
      <trkpt lat="44.45657" lon="5.10086">
        <ele>1332.52</ele>
        <time>2018-04-15T10:16:22Z</time>
      </trkpt>
      <trkpt lat="44.45639" lon="5.10095">
        <ele>1333.01</ele>
        <time>2018-04-15T10:16:40Z</time>
      </trkpt>
      <trkpt lat="44.45625" lon="5.10101">
        <ele>1333.01</ele>
        <time>2018-04-15T10:16:54Z</time>
      </trkpt>
      <trkpt lat="44.45611" lon="5.10107">
        <ele>1333.01</ele>
        <time>2018-04-15T10:17:08Z</time>
      </trkpt>
      <trkpt lat="44.45596" lon="5.10113">
        <ele>1331.56</ele>
        <time>2018-04-15T10:17:23Z</time>
      </trkpt>
      <trkpt lat="44.4558" lon="5.10118">
        <ele>1331.08</ele>
        <time>2018-04-15T10:17:38Z</time>
      </trkpt>
      <trkpt lat="44.4557" lon="5.10129">
        <ele>1333.97</ele>
        <time>2018-04-15T10:17:56Z</time>
      </trkpt>
      <trkpt lat="44.45563" lon="5.10136">
        <ele>1335.41</ele>
        <time>2018-04-15T10:18:09Z</time>
      </trkpt>
      <trkpt lat="44.45553" lon="5.10149">
        <ele>1335.89</ele>
        <time>2018-04-15T10:18:25Z</time>
      </trkpt>
      <trkpt lat="44.4554" lon="5.1016">
        <ele>1335.89</ele>
        <time>2018-04-15T10:18:42Z</time>
      </trkpt>
      <trkpt lat="44.45532" lon="5.10169">
        <ele>1336.37</ele>
        <time>2018-04-15T10:18:56Z</time>
      </trkpt>
      <trkpt lat="44.45527" lon="5.10178">
        <ele>1337.81</ele>
        <time>2018-04-15T10:19:12Z</time>
      </trkpt>
      <trkpt lat="44.45524" lon="5.10182">
        <ele>1338.29</ele>
        <time>2018-04-15T10:19:27Z</time>
      </trkpt>
      <trkpt lat="44.45523" lon="5.10185">
        <ele>1338.77</ele>
        <time>2018-04-15T10:19:53Z</time>
      </trkpt>
      <trkpt lat="44.45522" lon="5.10186">
        <ele>1338.77</ele>
        <time>2018-04-15T10:20:15Z</time>
      </trkpt>
      <trkpt lat="44.45519" lon="5.10191">
        <ele>1339.25</ele>
        <time>2018-04-15T10:23:51Z</time>
      </trkpt>
      <trkpt lat="44.45517" lon="5.10191">
        <ele>1340.7</ele>
        <time>2018-04-15T11:40:31Z</time>
      </trkpt>
      <trkpt lat="44.4552" lon="5.1019">
        <ele>1340.7</ele>
        <time>2018-04-15T11:40:45Z</time>
      </trkpt>
      <trkpt lat="44.4552" lon="5.1019">
        <ele>1340.7</ele>
        <time>2018-04-15T11:41:07Z</time>
      </trkpt>
      <trkpt lat="44.4552" lon="5.10187">
        <ele>1340.22</ele>
        <time>2018-04-15T11:41:19Z</time>
      </trkpt>
      <trkpt lat="44.45525" lon="5.10179">
        <ele>1339.73</ele>
        <time>2018-04-15T11:41:36Z</time>
      </trkpt>
      <trkpt lat="44.45528" lon="5.10173">
        <ele>1338.77</ele>
        <time>2018-04-15T11:41:42Z</time>
      </trkpt>
      <trkpt lat="44.45543" lon="5.10157">
        <ele>1336.85</ele>
        <time>2018-04-15T11:42:01Z</time>
      </trkpt>
      <trkpt lat="44.45558" lon="5.10145">
        <ele>1336.85</ele>
        <time>2018-04-15T11:42:18Z</time>
      </trkpt>
      <trkpt lat="44.45559" lon="5.10144">
        <ele>1336.85</ele>
        <time>2018-04-15T11:42:19Z</time>
      </trkpt>
      <trkpt lat="44.45566" lon="5.10138">
        <ele>1337.81</ele>
        <time>2018-04-15T11:42:29Z</time>
      </trkpt>
      <trkpt lat="44.4557" lon="5.1013">
        <ele>1336.37</ele>
        <time>2018-04-15T11:42:37Z</time>
      </trkpt>
      <trkpt lat="44.45585" lon="5.10117">
        <ele>1333.97</ele>
        <time>2018-04-15T11:42:54Z</time>
      </trkpt>
      <trkpt lat="44.45603" lon="5.10111">
        <ele>1333.01</ele>
        <time>2018-04-15T11:43:10Z</time>
      </trkpt>
      <trkpt lat="44.45605" lon="5.1011">
        <ele>1334.45</ele>
        <time>2018-04-15T11:43:12Z</time>
      </trkpt>
      <trkpt lat="44.45618" lon="5.10103">
        <ele>1334.93</ele>
        <time>2018-04-15T11:43:27Z</time>
      </trkpt>
      <trkpt lat="44.45619" lon="5.10102">
        <ele>1334.93</ele>
        <time>2018-04-15T11:43:28Z</time>
      </trkpt>
      <trkpt lat="44.45638" lon="5.10092">
        <ele>1335.41</ele>
        <time>2018-04-15T11:43:46Z</time>
      </trkpt>
      <trkpt lat="44.45639" lon="5.10092">
        <ele>1335.41</ele>
        <time>2018-04-15T11:43:47Z</time>
      </trkpt>
      <trkpt lat="44.45644" lon="5.1009">
        <ele>1335.41</ele>
        <time>2018-04-15T11:43:51Z</time>
      </trkpt>
      <trkpt lat="44.45647" lon="5.10088">
        <ele>1333.97</ele>
        <time>2018-04-15T11:43:54Z</time>
      </trkpt>
      <trkpt lat="44.45667" lon="5.10077">
        <ele>1333.97</ele>
        <time>2018-04-15T11:44:11Z</time>
      </trkpt>
      <trkpt lat="44.45681" lon="5.10069">
        <ele>1333.01</ele>
        <time>2018-04-15T11:44:25Z</time>
      </trkpt>
      <trkpt lat="44.457" lon="5.10065">
        <ele>1333.01</ele>
        <time>2018-04-15T11:44:41Z</time>
      </trkpt>
      <trkpt lat="44.45714" lon="5.10064">
        <ele>1333.01</ele>
        <time>2018-04-15T11:44:54Z</time>
      </trkpt>
      <trkpt lat="44.45729" lon="5.10067">
        <ele>1331.56</ele>
        <time>2018-04-15T11:45:08Z</time>
      </trkpt>
      <trkpt lat="44.45748" lon="5.10069">
        <ele>1331.56</ele>
        <time>2018-04-15T11:45:24Z</time>
      </trkpt>
      <trkpt lat="44.45762" lon="5.10068">
        <ele>1333.49</ele>
        <time>2018-04-15T11:45:37Z</time>
      </trkpt>
      <trkpt lat="44.45778" lon="5.10064">
        <ele>1334.45</ele>
        <time>2018-04-15T11:45:51Z</time>
      </trkpt>
      <trkpt lat="44.45796" lon="5.1006">
        <ele>1335.41</ele>
        <time>2018-04-15T11:46:08Z</time>
      </trkpt>
      <trkpt lat="44.45811" lon="5.10052">
        <ele>1336.37</ele>
        <time>2018-04-15T11:46:23Z</time>
      </trkpt>
      <trkpt lat="44.45831" lon="5.10042">
        <ele>1336.85</ele>
        <time>2018-04-15T11:46:40Z</time>
      </trkpt>
      <trkpt lat="44.45839" lon="5.10039">
        <ele>1336.37</ele>
        <time>2018-04-15T11:46:54Z</time>
      </trkpt>
      <trkpt lat="44.45842" lon="5.10039">
        <ele>1336.37</ele>
        <time>2018-04-15T11:47:09Z</time>
      </trkpt>
      <trkpt lat="44.45848" lon="5.10036">
        <ele>1335.41</ele>
        <time>2018-04-15T11:47:15Z</time>
      </trkpt>
      <trkpt lat="44.45862" lon="5.10023">
        <ele>1334.45</ele>
        <time>2018-04-15T11:47:31Z</time>
      </trkpt>
      <trkpt lat="44.45876" lon="5.1001">
        <ele>1333.01</ele>
        <time>2018-04-15T11:47:46Z</time>
      </trkpt>
      <trkpt lat="44.4589" lon="5.09995">
        <ele>1332.52</ele>
        <time>2018-04-15T11:48:02Z</time>
      </trkpt>
      <trkpt lat="44.45892" lon="5.09993">
        <ele>1333.97</ele>
        <time>2018-04-15T11:48:04Z</time>
      </trkpt>
      <trkpt lat="44.45903" lon="5.09977">
        <ele>1334.93</ele>
        <time>2018-04-15T11:48:19Z</time>
      </trkpt>
      <trkpt lat="44.4592" lon="5.09957">
        <ele>1332.04</ele>
        <time>2018-04-15T11:48:38Z</time>
      </trkpt>
      <trkpt lat="44.45939" lon="5.09934">
        <ele>1329.64</ele>
        <time>2018-04-15T11:48:58Z</time>
      </trkpt>
      <trkpt lat="44.45952" lon="5.0991">
        <ele>1327.72</ele>
        <time>2018-04-15T11:49:15Z</time>
      </trkpt>
      <trkpt lat="44.45966" lon="5.09887">
        <ele>1326.76</ele>
        <time>2018-04-15T11:49:32Z</time>
      </trkpt>
      <trkpt lat="44.4598" lon="5.09865">
        <ele>1325.8</ele>
        <time>2018-04-15T11:49:50Z</time>
      </trkpt>
      <trkpt lat="44.45989" lon="5.09852">
        <ele>1325.8</ele>
        <time>2018-04-15T11:50:02Z</time>
      </trkpt>
      <trkpt lat="44.46001" lon="5.09832">
        <ele>1325.8</ele>
        <time>2018-04-15T11:50:17Z</time>
      </trkpt>
      <trkpt lat="44.46016" lon="5.09812">
        <ele>1325.8</ele>
        <time>2018-04-15T11:50:35Z</time>
      </trkpt>
      <trkpt lat="44.46027" lon="5.09797">
        <ele>1326.76</ele>
        <time>2018-04-15T11:50:49Z</time>
      </trkpt>
      <trkpt lat="44.46037" lon="5.0978">
        <ele>1327.72</ele>
        <time>2018-04-15T11:51:03Z</time>
      </trkpt>
      <trkpt lat="44.46048" lon="5.09763">
        <ele>1328.68</ele>
        <time>2018-04-15T11:51:18Z</time>
      </trkpt>
      <trkpt lat="44.46062" lon="5.0975">
        <ele>1329.64</ele>
        <time>2018-04-15T11:51:33Z</time>
      </trkpt>
      <trkpt lat="44.46081" lon="5.09746">
        <ele>1329.64</ele>
        <time>2018-04-15T11:51:50Z</time>
      </trkpt>
      <trkpt lat="44.46099" lon="5.09746">
        <ele>1326.76</ele>
        <time>2018-04-15T11:52:06Z</time>
      </trkpt>
      <trkpt lat="44.46101" lon="5.09745">
        <ele>1326.76</ele>
        <time>2018-04-15T11:52:08Z</time>
      </trkpt>
      <trkpt lat="44.46113" lon="5.09729">
        <ele>1323.39</ele>
        <time>2018-04-15T11:52:23Z</time>
      </trkpt>
      <trkpt lat="44.46123" lon="5.09729">
        <ele>1319.55</ele>
        <time>2018-04-15T11:52:35Z</time>
      </trkpt>
      <trkpt lat="44.46129" lon="5.09731">
        <ele>1316.66</ele>
        <time>2018-04-15T11:52:43Z</time>
      </trkpt>
      <trkpt lat="44.46138" lon="5.09734">
        <ele>1312.82</ele>
        <time>2018-04-15T11:52:53Z</time>
      </trkpt>
      <trkpt lat="44.4614" lon="5.09735">
        <ele>1312.34</ele>
        <time>2018-04-15T11:52:56Z</time>
      </trkpt>
      <trkpt lat="44.4615" lon="5.09741">
        <ele>1308.97</ele>
        <time>2018-04-15T11:53:05Z</time>
      </trkpt>
      <trkpt lat="44.46164" lon="5.09748">
        <ele>1308.01</ele>
        <time>2018-04-15T11:53:22Z</time>
      </trkpt>
      <trkpt lat="44.46171" lon="5.0975">
        <ele>1307.53</ele>
        <time>2018-04-15T11:53:36Z</time>
      </trkpt>
      <trkpt lat="44.46172" lon="5.09752">
        <ele>1307.53</ele>
        <time>2018-04-15T11:53:52Z</time>
      </trkpt>
      <trkpt lat="44.46172" lon="5.09752">
        <ele>1307.53</ele>
        <time>2018-04-15T11:53:53Z</time>
      </trkpt>
      <trkpt lat="44.46174" lon="5.09752">
        <ele>1307.53</ele>
        <time>2018-04-15T11:53:55Z</time>
      </trkpt>
      <trkpt lat="44.46188" lon="5.09755">
        <ele>1307.53</ele>
        <time>2018-04-15T11:54:09Z</time>
      </trkpt>
      <trkpt lat="44.46198" lon="5.09755">
        <ele>1308.97</ele>
        <time>2018-04-15T11:54:18Z</time>
      </trkpt>
      <trkpt lat="44.46213" lon="5.09756">
        <ele>1308.97</ele>
        <time>2018-04-15T11:54:32Z</time>
      </trkpt>
      <trkpt lat="44.4623" lon="5.09749">
        <ele>1309.45</ele>
        <time>2018-04-15T11:54:47Z</time>
      </trkpt>
      <trkpt lat="44.46245" lon="5.09736">
        <ele>1309.45</ele>
        <time>2018-04-15T11:55:02Z</time>
      </trkpt>
      <trkpt lat="44.46259" lon="5.09719">
        <ele>1308.97</ele>
        <time>2018-04-15T11:55:17Z</time>
      </trkpt>
      <trkpt lat="44.46271" lon="5.09705">
        <ele>1310.9</ele>
        <time>2018-04-15T11:55:32Z</time>
      </trkpt>
      <trkpt lat="44.4628" lon="5.0969">
        <ele>1311.86</ele>
        <time>2018-04-15T11:55:45Z</time>
      </trkpt>
      <trkpt lat="44.46289" lon="5.09671">
        <ele>1312.34</ele>
        <time>2018-04-15T11:56:00Z</time>
      </trkpt>
      <trkpt lat="44.463" lon="5.09651">
        <ele>1312.34</ele>
        <time>2018-04-15T11:56:15Z</time>
      </trkpt>
      <trkpt lat="44.46313" lon="5.09628">
        <ele>1310.9</ele>
        <time>2018-04-15T11:56:31Z</time>
      </trkpt>
      <trkpt lat="44.46326" lon="5.09612">
        <ele>1309.93</ele>
        <time>2018-04-15T11:56:46Z</time>
      </trkpt>
      <trkpt lat="44.4634" lon="5.09594">
        <ele>1309.45</ele>
        <time>2018-04-15T11:57:02Z</time>
      </trkpt>
      <trkpt lat="44.46352" lon="5.09571">
        <ele>1308.49</ele>
        <time>2018-04-15T11:57:20Z</time>
      </trkpt>
      <trkpt lat="44.46361" lon="5.09547">
        <ele>1305.61</ele>
        <time>2018-04-15T11:57:38Z</time>
      </trkpt>
      <trkpt lat="44.46372" lon="5.09525">
        <ele>1303.2</ele>
        <time>2018-04-15T11:57:54Z</time>
      </trkpt>
      <trkpt lat="44.46386" lon="5.09508">
        <ele>1302.72</ele>
        <time>2018-04-15T11:58:11Z</time>
      </trkpt>
      <trkpt lat="44.46388" lon="5.09507">
        <ele>1302.72</ele>
        <time>2018-04-15T11:58:13Z</time>
      </trkpt>
      <trkpt lat="44.46394" lon="5.09507">
        <ele>1301.76</ele>
        <time>2018-04-15T11:58:19Z</time>
      </trkpt>
      <trkpt lat="44.46398" lon="5.09497">
        <ele>1301.28</ele>
        <time>2018-04-15T11:58:28Z</time>
      </trkpt>
      <trkpt lat="44.46409" lon="5.09487">
        <ele>1300.8</ele>
        <time>2018-04-15T11:58:41Z</time>
      </trkpt>
      <trkpt lat="44.46414" lon="5.09474">
        <ele>1296.96</ele>
        <time>2018-04-15T11:58:55Z</time>
      </trkpt>
      <trkpt lat="44.46419" lon="5.09462">
        <ele>1294.07</ele>
        <time>2018-04-15T11:59:10Z</time>
      </trkpt>
      <trkpt lat="44.46425" lon="5.09449">
        <ele>1290.71</ele>
        <time>2018-04-15T11:59:23Z</time>
      </trkpt>
      <trkpt lat="44.46431" lon="5.09435">
        <ele>1288.3</ele>
        <time>2018-04-15T11:59:36Z</time>
      </trkpt>
      <trkpt lat="44.46439" lon="5.09412">
        <ele>1286.38</ele>
        <time>2018-04-15T11:59:53Z</time>
      </trkpt>
      <trkpt lat="44.46451" lon="5.09384">
        <ele>1283.02</ele>
        <time>2018-04-15T12:00:13Z</time>
      </trkpt>
      <trkpt lat="44.46462" lon="5.09361">
        <ele>1280.61</ele>
        <time>2018-04-15T12:00:30Z</time>
      </trkpt>
      <trkpt lat="44.46472" lon="5.09339">
        <ele>1280.61</ele>
        <time>2018-04-15T12:00:47Z</time>
      </trkpt>
      <trkpt lat="44.46483" lon="5.09313">
        <ele>1280.61</ele>
        <time>2018-04-15T12:01:05Z</time>
      </trkpt>
      <trkpt lat="44.4649" lon="5.09292">
        <ele>1282.06</ele>
        <time>2018-04-15T12:01:19Z</time>
      </trkpt>
      <trkpt lat="44.46497" lon="5.09268">
        <ele>1282.54</ele>
        <time>2018-04-15T12:01:35Z</time>
      </trkpt>
      <trkpt lat="44.46504" lon="5.09243">
        <ele>1281.09</ele>
        <time>2018-04-15T12:01:52Z</time>
      </trkpt>
      <trkpt lat="44.4651" lon="5.09223">
        <ele>1280.13</ele>
        <time>2018-04-15T12:02:06Z</time>
      </trkpt>
      <trkpt lat="44.46507" lon="5.09223">
        <ele>1280.13</ele>
        <time>2018-04-15T12:02:24Z</time>
      </trkpt>
      <trkpt lat="44.4651" lon="5.09214">
        <ele>1279.65</ele>
        <time>2018-04-15T12:02:34Z</time>
      </trkpt>
      <trkpt lat="44.46512" lon="5.0921">
        <ele>1278.69</ele>
        <time>2018-04-15T12:02:37Z</time>
      </trkpt>
      <trkpt lat="44.46514" lon="5.09206">
        <ele>1278.69</ele>
        <time>2018-04-15T12:02:40Z</time>
      </trkpt>
      <trkpt lat="44.46521" lon="5.09188">
        <ele>1277.25</ele>
        <time>2018-04-15T12:02:58Z</time>
      </trkpt>
      <trkpt lat="44.46528" lon="5.0917">
        <ele>1276.29</ele>
        <time>2018-04-15T12:03:13Z</time>
      </trkpt>
      <trkpt lat="44.46535" lon="5.09157">
        <ele>1275.81</ele>
        <time>2018-04-15T12:03:26Z</time>
      </trkpt>
      <trkpt lat="44.46546" lon="5.09136">
        <ele>1273.88</ele>
        <time>2018-04-15T12:03:43Z</time>
      </trkpt>
      <trkpt lat="44.46549" lon="5.09131">
        <ele>1273.4</ele>
        <time>2018-04-15T12:03:48Z</time>
      </trkpt>
      <trkpt lat="44.46559" lon="5.09119">
        <ele>1270.04</ele>
        <time>2018-04-15T12:04:03Z</time>
      </trkpt>
      <trkpt lat="44.46563" lon="5.09111">
        <ele>1268.6</ele>
        <time>2018-04-15T12:04:11Z</time>
      </trkpt>
      <trkpt lat="44.46571" lon="5.09099">
        <ele>1265.23</ele>
        <time>2018-04-15T12:04:23Z</time>
      </trkpt>
      <trkpt lat="44.46586" lon="5.09077">
        <ele>1262.35</ele>
        <time>2018-04-15T12:04:41Z</time>
      </trkpt>
      <trkpt lat="44.46601" lon="5.09055">
        <ele>1261.39</ele>
        <time>2018-04-15T12:04:58Z</time>
      </trkpt>
      <trkpt lat="44.46615" lon="5.09035">
        <ele>1258.5</ele>
        <time>2018-04-15T12:05:15Z</time>
      </trkpt>
      <trkpt lat="44.46629" lon="5.09012">
        <ele>1257.06</ele>
        <time>2018-04-15T12:05:33Z</time>
      </trkpt>
      <trkpt lat="44.4664" lon="5.08988">
        <ele>1257.06</ele>
        <time>2018-04-15T12:05:50Z</time>
      </trkpt>
      <trkpt lat="44.46649" lon="5.08967">
        <ele>1258.02</ele>
        <time>2018-04-15T12:06:07Z</time>
      </trkpt>
      <trkpt lat="44.46655" lon="5.0895">
        <ele>1257.54</ele>
        <time>2018-04-15T12:06:21Z</time>
      </trkpt>
      <trkpt lat="44.46665" lon="5.08928">
        <ele>1256.1</ele>
        <time>2018-04-15T12:06:42Z</time>
      </trkpt>
      <trkpt lat="44.46667" lon="5.08921">
        <ele>1255.62</ele>
        <time>2018-04-15T12:06:56Z</time>
      </trkpt>
      <trkpt lat="44.4667" lon="5.08912">
        <ele>1255.62</ele>
        <time>2018-04-15T12:07:04Z</time>
      </trkpt>
      <trkpt lat="44.46677" lon="5.08896">
        <ele>1257.06</ele>
        <time>2018-04-15T12:07:18Z</time>
      </trkpt>
      <trkpt lat="44.46681" lon="5.08881">
        <ele>1257.54</ele>
        <time>2018-04-15T12:07:33Z</time>
      </trkpt>
      <trkpt lat="44.46683" lon="5.08879">
        <ele>1257.06</ele>
        <time>2018-04-15T12:07:53Z</time>
      </trkpt>
      <trkpt lat="44.46689" lon="5.08875">
        <ele>1257.06</ele>
        <time>2018-04-15T12:11:27Z</time>
      </trkpt>
      <trkpt lat="44.46697" lon="5.08869">
        <ele>1254.18</ele>
        <time>2018-04-15T12:11:40Z</time>
      </trkpt>
      <trkpt lat="44.46701" lon="5.08866">
        <ele>1253.22</ele>
        <time>2018-04-15T12:11:45Z</time>
      </trkpt>
      <trkpt lat="44.46712" lon="5.08851">
        <ele>1249.37</ele>
        <time>2018-04-15T12:12:01Z</time>
      </trkpt>
      <trkpt lat="44.4672" lon="5.08833">
        <ele>1246.97</ele>
        <time>2018-04-15T12:12:17Z</time>
      </trkpt>
      <trkpt lat="44.46718" lon="5.08827">
        <ele>1246.97</ele>
        <time>2018-04-15T12:12:36Z</time>
      </trkpt>
      <trkpt lat="44.46714" lon="5.08812">
        <ele>1245.04</ele>
        <time>2018-04-15T12:12:50Z</time>
      </trkpt>
      <trkpt lat="44.46714" lon="5.08804">
        <ele>1243.12</ele>
        <time>2018-04-15T12:12:59Z</time>
      </trkpt>
      <trkpt lat="44.46712" lon="5.08789">
        <ele>1243.12</ele>
        <time>2018-04-15T12:13:15Z</time>
      </trkpt>
      <trkpt lat="44.46715" lon="5.08768">
        <ele>1240.72</ele>
        <time>2018-04-15T12:13:32Z</time>
      </trkpt>
      <trkpt lat="44.46716" lon="5.08752">
        <ele>1238.32</ele>
        <time>2018-04-15T12:13:48Z</time>
      </trkpt>
      <trkpt lat="44.46717" lon="5.08753">
        <ele>1238.32</ele>
        <time>2018-04-15T12:14:03Z</time>
      </trkpt>
      <trkpt lat="44.46719" lon="5.0875">
        <ele>1238.32</ele>
        <time>2018-04-15T12:14:07Z</time>
      </trkpt>
      <trkpt lat="44.4672" lon="5.08747">
        <ele>1238.32</ele>
        <time>2018-04-15T12:14:10Z</time>
      </trkpt>
      <trkpt lat="44.46725" lon="5.08733">
        <ele>1238.32</ele>
        <time>2018-04-15T12:14:22Z</time>
      </trkpt>
      <trkpt lat="44.46724" lon="5.08707">
        <ele>1237.35</ele>
        <time>2018-04-15T12:14:40Z</time>
      </trkpt>
      <trkpt lat="44.46727" lon="5.08682">
        <ele>1235.91</ele>
        <time>2018-04-15T12:14:57Z</time>
      </trkpt>
      <trkpt lat="44.46727" lon="5.0866">
        <ele>1233.99</ele>
        <time>2018-04-15T12:15:13Z</time>
      </trkpt>
      <trkpt lat="44.46725" lon="5.08642">
        <ele>1233.03</ele>
        <time>2018-04-15T12:15:26Z</time>
      </trkpt>
      <trkpt lat="44.46724" lon="5.08639">
        <ele>1232.55</ele>
        <time>2018-04-15T12:15:28Z</time>
      </trkpt>
      <trkpt lat="44.46725" lon="5.08627">
        <ele>1231.59</ele>
        <time>2018-04-15T12:15:40Z</time>
      </trkpt>
      <trkpt lat="44.46729" lon="5.08615">
        <ele>1229.66</ele>
        <time>2018-04-15T12:15:53Z</time>
      </trkpt>
      <trkpt lat="44.46735" lon="5.08594">
        <ele>1227.26</ele>
        <time>2018-04-15T12:16:12Z</time>
      </trkpt>
      <trkpt lat="44.46742" lon="5.08575">
        <ele>1225.82</ele>
        <time>2018-04-15T12:16:26Z</time>
      </trkpt>
      <trkpt lat="44.46744" lon="5.08555">
        <ele>1225.82</ele>
        <time>2018-04-15T12:16:41Z</time>
      </trkpt>
      <trkpt lat="44.46742" lon="5.08539">
        <ele>1227.26</ele>
        <time>2018-04-15T12:16:55Z</time>
      </trkpt>
      <trkpt lat="44.46744" lon="5.08527">
        <ele>1226.3</ele>
        <time>2018-04-15T12:17:03Z</time>
      </trkpt>
      <trkpt lat="44.46746" lon="5.08501">
        <ele>1222.93</ele>
        <time>2018-04-15T12:17:21Z</time>
      </trkpt>
      <trkpt lat="44.46753" lon="5.08482">
        <ele>1220.05</ele>
        <time>2018-04-15T12:17:35Z</time>
      </trkpt>
      <trkpt lat="44.46757" lon="5.08478">
        <ele>1218.61</ele>
        <time>2018-04-15T12:17:40Z</time>
      </trkpt>
      <trkpt lat="44.46765" lon="5.08471">
        <ele>1215.72</ele>
        <time>2018-04-15T12:17:50Z</time>
      </trkpt>
      <trkpt lat="44.46776" lon="5.08465">
        <ele>1212.36</ele>
        <time>2018-04-15T12:18:03Z</time>
      </trkpt>
      <trkpt lat="44.46788" lon="5.08459">
        <ele>1209</ele>
        <time>2018-04-15T12:18:16Z</time>
      </trkpt>
      <trkpt lat="44.4679" lon="5.08458">
        <ele>1208.03</ele>
        <time>2018-04-15T12:18:18Z</time>
      </trkpt>
      <trkpt lat="44.46794" lon="5.08455">
        <ele>1207.07</ele>
        <time>2018-04-15T12:18:23Z</time>
      </trkpt>
      <trkpt lat="44.46806" lon="5.08454">
        <ele>1203.23</ele>
        <time>2018-04-15T12:18:37Z</time>
      </trkpt>
      <trkpt lat="44.46815" lon="5.08456">
        <ele>1199.86</ele>
        <time>2018-04-15T12:18:48Z</time>
      </trkpt>
      <trkpt lat="44.46819" lon="5.08457">
        <ele>1198.42</ele>
        <time>2018-04-15T12:18:53Z</time>
      </trkpt>
      <trkpt lat="44.46837" lon="5.08453">
        <ele>1198.42</ele>
        <time>2018-04-15T12:19:11Z</time>
      </trkpt>
      <trkpt lat="44.46846" lon="5.08433">
        <ele>1195.06</ele>
        <time>2018-04-15T12:19:27Z</time>
      </trkpt>
      <trkpt lat="44.46853" lon="5.08407">
        <ele>1192.65</ele>
        <time>2018-04-15T12:19:45Z</time>
      </trkpt>
      <trkpt lat="44.4686" lon="5.08383">
        <ele>1189.77</ele>
        <time>2018-04-15T12:20:03Z</time>
      </trkpt>
      <trkpt lat="44.46865" lon="5.08367">
        <ele>1186.4</ele>
        <time>2018-04-15T12:20:16Z</time>
      </trkpt>
      <trkpt lat="44.4687" lon="5.08354">
        <ele>1183.04</ele>
        <time>2018-04-15T12:20:28Z</time>
      </trkpt>
      <trkpt lat="44.46875" lon="5.08345">
        <ele>1180.64</ele>
        <time>2018-04-15T12:20:44Z</time>
      </trkpt>
      <trkpt lat="44.46877" lon="5.08341">
        <ele>1178.71</ele>
        <time>2018-04-15T12:21:01Z</time>
      </trkpt>
      <trkpt lat="44.46883" lon="5.08325">
        <ele>1176.31</ele>
        <time>2018-04-15T12:21:17Z</time>
      </trkpt>
      <trkpt lat="44.4689" lon="5.08304">
        <ele>1172.95</ele>
        <time>2018-04-15T12:21:31Z</time>
      </trkpt>
      <trkpt lat="44.4689" lon="5.08294">
        <ele>1172.47</ele>
        <time>2018-04-15T12:21:38Z</time>
      </trkpt>
      <trkpt lat="44.46893" lon="5.08288">
        <ele>1171.98</ele>
        <time>2018-04-15T12:21:50Z</time>
      </trkpt>
      <trkpt lat="44.46906" lon="5.08286">
        <ele>1173.43</ele>
        <time>2018-04-15T12:22:04Z</time>
      </trkpt>
      <trkpt lat="44.46921" lon="5.08284">
        <ele>1173.91</ele>
        <time>2018-04-15T12:22:18Z</time>
      </trkpt>
      <trkpt lat="44.46922" lon="5.08283">
        <ele>1173.91</ele>
        <time>2018-04-15T12:22:19Z</time>
      </trkpt>
      <trkpt lat="44.46939" lon="5.08272">
        <ele>1171.98</ele>
        <time>2018-04-15T12:22:37Z</time>
      </trkpt>
      <trkpt lat="44.46951" lon="5.08253">
        <ele>1171.02</ele>
        <time>2018-04-15T12:22:54Z</time>
      </trkpt>
      <trkpt lat="44.46953" lon="5.08246">
        <ele>1170.54</ele>
        <time>2018-04-15T12:22:58Z</time>
      </trkpt>
      <trkpt lat="44.46953" lon="5.08242">
        <ele>1170.54</ele>
        <time>2018-04-15T12:23:00Z</time>
      </trkpt>
      <trkpt lat="44.46952" lon="5.08216">
        <ele>1168.62</ele>
        <time>2018-04-15T12:23:16Z</time>
      </trkpt>
      <trkpt lat="44.4695" lon="5.08209">
        <ele>1168.14</ele>
        <time>2018-04-15T12:23:21Z</time>
      </trkpt>
      <trkpt lat="44.4695" lon="5.08202">
        <ele>1167.66</ele>
        <time>2018-04-15T12:23:25Z</time>
      </trkpt>
      <trkpt lat="44.46949" lon="5.0819">
        <ele>1166.7</ele>
        <time>2018-04-15T12:23:35Z</time>
      </trkpt>
      <trkpt lat="44.46953" lon="5.08163">
        <ele>1163.33</ele>
        <time>2018-04-15T12:23:52Z</time>
      </trkpt>
      <trkpt lat="44.46955" lon="5.0815">
        <ele>1161.89</ele>
        <time>2018-04-15T12:24:01Z</time>
      </trkpt>
      <trkpt lat="44.46963" lon="5.08127">
        <ele>1158.53</ele>
        <time>2018-04-15T12:24:17Z</time>
      </trkpt>
      <trkpt lat="44.4697" lon="5.08107">
        <ele>1155.16</ele>
        <time>2018-04-15T12:24:31Z</time>
      </trkpt>
      <trkpt lat="44.4698" lon="5.08091">
        <ele>1152.28</ele>
        <time>2018-04-15T12:24:45Z</time>
      </trkpt>
      <trkpt lat="44.46993" lon="5.08079">
        <ele>1149.87</ele>
        <time>2018-04-15T12:25:00Z</time>
      </trkpt>
      <trkpt lat="44.46995" lon="5.08078">
        <ele>1148.91</ele>
        <time>2018-04-15T12:25:03Z</time>
      </trkpt>
      <trkpt lat="44.46999" lon="5.08077">
        <ele>1147.95</ele>
        <time>2018-04-15T12:25:07Z</time>
      </trkpt>
      <trkpt lat="44.4701" lon="5.0806">
        <ele>1145.07</ele>
        <time>2018-04-15T12:25:23Z</time>
      </trkpt>
      <trkpt lat="44.47016" lon="5.08045">
        <ele>1141.7</ele>
        <time>2018-04-15T12:25:36Z</time>
      </trkpt>
      <trkpt lat="44.47022" lon="5.08028">
        <ele>1138.34</ele>
        <time>2018-04-15T12:25:49Z</time>
      </trkpt>
      <trkpt lat="44.47028" lon="5.0801">
        <ele>1135.94</ele>
        <time>2018-04-15T12:26:02Z</time>
      </trkpt>
      <trkpt lat="44.47034" lon="5.07991">
        <ele>1133.05</ele>
        <time>2018-04-15T12:26:16Z</time>
      </trkpt>
      <trkpt lat="44.47034" lon="5.07987">
        <ele>1132.09</ele>
        <time>2018-04-15T12:26:19Z</time>
      </trkpt>
      <trkpt lat="44.47038" lon="5.07973">
        <ele>1130.65</ele>
        <time>2018-04-15T12:26:30Z</time>
      </trkpt>
      <trkpt lat="44.4704" lon="5.07969">
        <ele>1130.17</ele>
        <time>2018-04-15T12:26:33Z</time>
      </trkpt>
      <trkpt lat="44.47045" lon="5.07952">
        <ele>1127.76</ele>
        <time>2018-04-15T12:26:46Z</time>
      </trkpt>
      <trkpt lat="44.47047" lon="5.07933">
        <ele>1124.88</ele>
        <time>2018-04-15T12:27:01Z</time>
      </trkpt>
      <trkpt lat="44.47045" lon="5.07925">
        <ele>1124.4</ele>
        <time>2018-04-15T12:27:06Z</time>
      </trkpt>
      <trkpt lat="44.47043" lon="5.07906">
        <ele>1122.96</ele>
        <time>2018-04-15T12:27:22Z</time>
      </trkpt>
      <trkpt lat="44.47046" lon="5.07891">
        <ele>1120.55</ele>
        <time>2018-04-15T12:27:38Z</time>
      </trkpt>
      <trkpt lat="44.47053" lon="5.07875">
        <ele>1117.67</ele>
        <time>2018-04-15T12:27:54Z</time>
      </trkpt>
      <trkpt lat="44.47056" lon="5.07873">
        <ele>1116.71</ele>
        <time>2018-04-15T12:28:06Z</time>
      </trkpt>
      <trkpt lat="44.47057" lon="5.07871">
        <ele>1116.71</ele>
        <time>2018-04-15T12:28:34Z</time>
      </trkpt>
      <trkpt lat="44.47061" lon="5.07859">
        <ele>1113.82</ele>
        <time>2018-04-15T12:28:50Z</time>
      </trkpt>
      <trkpt lat="44.47064" lon="5.07847">
        <ele>1111.42</ele>
        <time>2018-04-15T12:29:03Z</time>
      </trkpt>
      <trkpt lat="44.47068" lon="5.07828">
        <ele>1108.06</ele>
        <time>2018-04-15T12:29:17Z</time>
      </trkpt>
      <trkpt lat="44.47068" lon="5.07826">
        <ele>1108.06</ele>
        <time>2018-04-15T12:29:18Z</time>
      </trkpt>
      <trkpt lat="44.47073" lon="5.07809">
        <ele>1104.69</ele>
        <time>2018-04-15T12:29:30Z</time>
      </trkpt>
      <trkpt lat="44.47077" lon="5.07792">
        <ele>1102.77</ele>
        <time>2018-04-15T12:29:46Z</time>
      </trkpt>
      <trkpt lat="44.47078" lon="5.07774">
        <ele>1100.37</ele>
        <time>2018-04-15T12:30:05Z</time>
      </trkpt>
      <trkpt lat="44.47078" lon="5.0777">
        <ele>1099.89</ele>
        <time>2018-04-15T12:30:07Z</time>
      </trkpt>
      <trkpt lat="44.47069" lon="5.07755">
        <ele>1098.92</ele>
        <time>2018-04-15T12:30:25Z</time>
      </trkpt>
      <trkpt lat="44.47065" lon="5.07747">
        <ele>1097.96</ele>
        <time>2018-04-15T12:30:37Z</time>
      </trkpt>
      <trkpt lat="44.47056" lon="5.07721">
        <ele>1096.04</ele>
        <time>2018-04-15T12:30:55Z</time>
      </trkpt>
      <trkpt lat="44.47046" lon="5.07697">
        <ele>1094.6</ele>
        <time>2018-04-15T12:31:13Z</time>
      </trkpt>
      <trkpt lat="44.47042" lon="5.07686">
        <ele>1093.64</ele>
        <time>2018-04-15T12:31:21Z</time>
      </trkpt>
      <trkpt lat="44.47041" lon="5.07673">
        <ele>1093.16</ele>
        <time>2018-04-15T12:31:29Z</time>
      </trkpt>
      <trkpt lat="44.47048" lon="5.07662">
        <ele>1091.71</ele>
        <time>2018-04-15T12:31:39Z</time>
      </trkpt>
      <trkpt lat="44.47062" lon="5.07653">
        <ele>1090.27</ele>
        <time>2018-04-15T12:31:55Z</time>
      </trkpt>
      <trkpt lat="44.47065" lon="5.07653">
        <ele>1089.79</ele>
        <time>2018-04-15T12:31:58Z</time>
      </trkpt>
      <trkpt lat="44.47085" lon="5.0765">
        <ele>1087.87</ele>
        <time>2018-04-15T12:32:14Z</time>
      </trkpt>
      <trkpt lat="44.47101" lon="5.07651">
        <ele>1085.95</ele>
        <time>2018-04-15T12:32:30Z</time>
      </trkpt>
      <trkpt lat="44.47107" lon="5.0765">
        <ele>1084.99</ele>
        <time>2018-04-15T12:32:46Z</time>
      </trkpt>
      <trkpt lat="44.47111" lon="5.07651">
        <ele>1084.5</ele>
        <time>2018-04-15T12:32:57Z</time>
      </trkpt>
      <trkpt lat="44.47119" lon="5.07651">
        <ele>1083.54</ele>
        <time>2018-04-15T12:33:05Z</time>
      </trkpt>
      <trkpt lat="44.47133" lon="5.07643">
        <ele>1081.14</ele>
        <time>2018-04-15T12:33:19Z</time>
      </trkpt>
      <trkpt lat="44.47134" lon="5.07623">
        <ele>1080.66</ele>
        <time>2018-04-15T12:33:36Z</time>
      </trkpt>
      <trkpt lat="44.47133" lon="5.07621">
        <ele>1080.66</ele>
        <time>2018-04-15T12:33:37Z</time>
      </trkpt>
      <trkpt lat="44.47123" lon="5.07597">
        <ele>1080.18</ele>
        <time>2018-04-15T12:33:55Z</time>
      </trkpt>
      <trkpt lat="44.47115" lon="5.07574">
        <ele>1077.29</ele>
        <time>2018-04-15T12:34:11Z</time>
      </trkpt>
      <trkpt lat="44.4711" lon="5.07566">
        <ele>1076.33</ele>
        <time>2018-04-15T12:34:18Z</time>
      </trkpt>
      <trkpt lat="44.47093" lon="5.07564">
        <ele>1075.37</ele>
        <time>2018-04-15T12:34:36Z</time>
      </trkpt>
      <trkpt lat="44.47085" lon="5.07552">
        <ele>1073.45</ele>
        <time>2018-04-15T12:34:52Z</time>
      </trkpt>
      <trkpt lat="44.47091" lon="5.07538">
        <ele>1071.53</ele>
        <time>2018-04-15T12:35:07Z</time>
      </trkpt>
      <trkpt lat="44.47096" lon="5.07518">
        <ele>1069.6</ele>
        <time>2018-04-15T12:35:23Z</time>
      </trkpt>
      <trkpt lat="44.47102" lon="5.07496">
        <ele>1068.16</ele>
        <time>2018-04-15T12:35:40Z</time>
      </trkpt>
      <trkpt lat="44.47107" lon="5.07479">
        <ele>1065.76</ele>
        <time>2018-04-15T12:35:53Z</time>
      </trkpt>
      <trkpt lat="44.47118" lon="5.07464">
        <ele>1063.84</ele>
        <time>2018-04-15T12:36:10Z</time>
      </trkpt>
      <trkpt lat="44.4712" lon="5.07462">
        <ele>1063.84</ele>
        <time>2018-04-15T12:36:12Z</time>
      </trkpt>
      <trkpt lat="44.47134" lon="5.07453">
        <ele>1062.87</ele>
        <time>2018-04-15T12:36:26Z</time>
      </trkpt>
      <trkpt lat="44.47149" lon="5.07448">
        <ele>1059.99</ele>
        <time>2018-04-15T12:36:42Z</time>
      </trkpt>
      <trkpt lat="44.47151" lon="5.07448">
        <ele>1059.51</ele>
        <time>2018-04-15T12:36:43Z</time>
      </trkpt>
      <trkpt lat="44.47167" lon="5.07447">
        <ele>1058.55</ele>
        <time>2018-04-15T12:36:58Z</time>
      </trkpt>
      <trkpt lat="44.4719" lon="5.0745">
        <ele>1056.63</ele>
        <time>2018-04-15T12:37:16Z</time>
      </trkpt>
      <trkpt lat="44.47207" lon="5.07451">
        <ele>1054.7</ele>
        <time>2018-04-15T12:37:31Z</time>
      </trkpt>
      <trkpt lat="44.47228" lon="5.0746">
        <ele>1052.78</ele>
        <time>2018-04-15T12:37:46Z</time>
      </trkpt>
      <trkpt lat="44.47245" lon="5.07471">
        <ele>1051.82</ele>
        <time>2018-04-15T12:38:01Z</time>
      </trkpt>
      <trkpt lat="44.47258" lon="5.07485">
        <ele>1050.38</ele>
        <time>2018-04-15T12:38:17Z</time>
      </trkpt>
      <trkpt lat="44.47268" lon="5.07498">
        <ele>1047.01</ele>
        <time>2018-04-15T12:38:33Z</time>
      </trkpt>
      <trkpt lat="44.47281" lon="5.07506">
        <ele>1044.13</ele>
        <time>2018-04-15T12:38:48Z</time>
      </trkpt>
      <trkpt lat="44.47286" lon="5.07502">
        <ele>1043.65</ele>
        <time>2018-04-15T12:38:53Z</time>
      </trkpt>
      <trkpt lat="44.47301" lon="5.07489">
        <ele>1040.76</ele>
        <time>2018-04-15T12:39:09Z</time>
      </trkpt>
      <trkpt lat="44.47314" lon="5.07478">
        <ele>1037.88</ele>
        <time>2018-04-15T12:39:24Z</time>
      </trkpt>
      <trkpt lat="44.47321" lon="5.07473">
        <ele>1035.96</ele>
        <time>2018-04-15T12:39:31Z</time>
      </trkpt>
      <trkpt lat="44.47325" lon="5.07468">
        <ele>1035.48</ele>
        <time>2018-04-15T12:39:36Z</time>
      </trkpt>
      <trkpt lat="44.4733" lon="5.07457">
        <ele>1034.04</ele>
        <time>2018-04-15T12:39:44Z</time>
      </trkpt>
      <trkpt lat="44.47332" lon="5.0744">
        <ele>1033.07</ele>
        <time>2018-04-15T12:39:57Z</time>
      </trkpt>
      <trkpt lat="44.47333" lon="5.07433">
        <ele>1032.59</ele>
        <time>2018-04-15T12:40:02Z</time>
      </trkpt>
      <trkpt lat="44.47336" lon="5.07418">
        <ele>1030.19</ele>
        <time>2018-04-15T12:40:14Z</time>
      </trkpt>
      <trkpt lat="44.47341" lon="5.07397">
        <ele>1027.31</ele>
        <time>2018-04-15T12:40:28Z</time>
      </trkpt>
      <trkpt lat="44.47344" lon="5.07393">
        <ele>1026.83</ele>
        <time>2018-04-15T12:40:31Z</time>
      </trkpt>
      <trkpt lat="44.4735" lon="5.07369">
        <ele>1024.42</ele>
        <time>2018-04-15T12:40:47Z</time>
      </trkpt>
      <trkpt lat="44.47363" lon="5.07348">
        <ele>1021.54</ele>
        <time>2018-04-15T12:41:03Z</time>
      </trkpt>
      <trkpt lat="44.47379" lon="5.07329">
        <ele>1018.17</ele>
        <time>2018-04-15T12:41:19Z</time>
      </trkpt>
      <trkpt lat="44.47388" lon="5.07318">
        <ele>1016.73</ele>
        <time>2018-04-15T12:41:29Z</time>
      </trkpt>
      <trkpt lat="44.47392" lon="5.07312">
        <ele>1015.77</ele>
        <time>2018-04-15T12:41:34Z</time>
      </trkpt>
      <trkpt lat="44.47409" lon="5.07288">
        <ele>1013.37</ele>
        <time>2018-04-15T12:41:53Z</time>
      </trkpt>
      <trkpt lat="44.47424" lon="5.07266">
        <ele>1009.52</ele>
        <time>2018-04-15T12:42:11Z</time>
      </trkpt>
      <trkpt lat="44.47438" lon="5.07247">
        <ele>1006.64</ele>
        <time>2018-04-15T12:42:27Z</time>
      </trkpt>
      <trkpt lat="44.47451" lon="5.07229">
        <ele>1004.23</ele>
        <time>2018-04-15T12:42:42Z</time>
      </trkpt>
      <trkpt lat="44.4746" lon="5.07216">
        <ele>1001.35</ele>
        <time>2018-04-15T12:42:53Z</time>
      </trkpt>
      <trkpt lat="44.47472" lon="5.07198">
        <ele>998.95</ele>
        <time>2018-04-15T12:43:08Z</time>
      </trkpt>
      <trkpt lat="44.47481" lon="5.07183">
        <ele>996.06</ele>
        <time>2018-04-15T12:43:20Z</time>
      </trkpt>
      <trkpt lat="44.47488" lon="5.0717">
        <ele>994.62</ele>
        <time>2018-04-15T12:43:30Z</time>
      </trkpt>
      <trkpt lat="44.47491" lon="5.07165">
        <ele>993.66</ele>
        <time>2018-04-15T12:43:34Z</time>
      </trkpt>
      <trkpt lat="44.47505" lon="5.07143">
        <ele>990.78</ele>
        <time>2018-04-15T12:43:53Z</time>
      </trkpt>
      <trkpt lat="44.4751" lon="5.07137">
        <ele>989.81</ele>
        <time>2018-04-15T12:44:05Z</time>
      </trkpt>
      <trkpt lat="44.47516" lon="5.07131">
        <ele>988.85</ele>
        <time>2018-04-15T12:44:33Z</time>
      </trkpt>
      <trkpt lat="44.47534" lon="5.07133">
        <ele>987.41</ele>
        <time>2018-04-15T12:44:49Z</time>
      </trkpt>
      <trkpt lat="44.47547" lon="5.07133">
        <ele>985.97</ele>
        <time>2018-04-15T12:45:04Z</time>
      </trkpt>
      <trkpt lat="44.4756" lon="5.07116">
        <ele>983.57</ele>
        <time>2018-04-15T12:45:20Z</time>
      </trkpt>
      <trkpt lat="44.47562" lon="5.07103">
        <ele>983.09</ele>
        <time>2018-04-15T12:45:33Z</time>
      </trkpt>
      <trkpt lat="44.47569" lon="5.07097">
        <ele>981.64</ele>
        <time>2018-04-15T12:46:52Z</time>
      </trkpt>
      <trkpt lat="44.47577" lon="5.07081">
        <ele>980.2</ele>
        <time>2018-04-15T12:47:09Z</time>
      </trkpt>
      <trkpt lat="44.47605" lon="5.0708">
        <ele>978.28</ele>
        <time>2018-04-15T12:48:19Z</time>
      </trkpt>
      <trkpt lat="44.47625" lon="5.07077">
        <ele>975.88</ele>
        <time>2018-04-15T12:48:37Z</time>
      </trkpt>
      <trkpt lat="44.47643" lon="5.07073">
        <ele>972.99</ele>
        <time>2018-04-15T12:48:54Z</time>
      </trkpt>
      <trkpt lat="44.47657" lon="5.07059">
        <ele>970.59</ele>
        <time>2018-04-15T12:49:11Z</time>
      </trkpt>
      <trkpt lat="44.47672" lon="5.07042">
        <ele>967.7</ele>
        <time>2018-04-15T12:49:28Z</time>
      </trkpt>
      <trkpt lat="44.47686" lon="5.07035">
        <ele>964.34</ele>
        <time>2018-04-15T12:49:42Z</time>
      </trkpt>
      <trkpt lat="44.47693" lon="5.07033">
        <ele>963.38</ele>
        <time>2018-04-15T12:49:51Z</time>
      </trkpt>
      <trkpt lat="44.47695" lon="5.07028">
        <ele>962.9</ele>
        <time>2018-04-15T12:49:55Z</time>
      </trkpt>
      <trkpt lat="44.47701" lon="5.07007">
        <ele>960.01</ele>
        <time>2018-04-15T12:50:11Z</time>
      </trkpt>
      <trkpt lat="44.47703" lon="5.06998">
        <ele>959.05</ele>
        <time>2018-04-15T12:50:17Z</time>
      </trkpt>
      <trkpt lat="44.47709" lon="5.06981">
        <ele>956.65</ele>
        <time>2018-04-15T12:50:31Z</time>
      </trkpt>
      <trkpt lat="44.47714" lon="5.06978">
        <ele>955.69</ele>
        <time>2018-04-15T12:50:45Z</time>
      </trkpt>
      <trkpt lat="44.4773" lon="5.06977">
        <ele>952.8</ele>
        <time>2018-04-15T12:51:03Z</time>
      </trkpt>
      <trkpt lat="44.47739" lon="5.06969">
        <ele>950.88</ele>
        <time>2018-04-15T12:51:16Z</time>
      </trkpt>
      <trkpt lat="44.47742" lon="5.0695">
        <ele>949.44</ele>
        <time>2018-04-15T12:51:29Z</time>
      </trkpt>
      <trkpt lat="44.47748" lon="5.06933">
        <ele>946.07</ele>
        <time>2018-04-15T12:51:43Z</time>
      </trkpt>
      <trkpt lat="44.47748" lon="5.0692">
        <ele>943.19</ele>
        <time>2018-04-15T12:51:53Z</time>
      </trkpt>
      <trkpt lat="44.47751" lon="5.06898">
        <ele>939.83</ele>
        <time>2018-04-15T12:52:06Z</time>
      </trkpt>
      <trkpt lat="44.4775" lon="5.06878">
        <ele>937.42</ele>
        <time>2018-04-15T12:52:19Z</time>
      </trkpt>
      <trkpt lat="44.4775" lon="5.06875">
        <ele>936.94</ele>
        <time>2018-04-15T12:52:21Z</time>
      </trkpt>
      <trkpt lat="44.47756" lon="5.06859">
        <ele>934.54</ele>
        <time>2018-04-15T12:52:36Z</time>
      </trkpt>
      <trkpt lat="44.47763" lon="5.06858">
        <ele>934.06</ele>
        <time>2018-04-15T12:52:56Z</time>
      </trkpt>
      <trkpt lat="44.4777" lon="5.06858">
        <ele>933.58</ele>
        <time>2018-04-15T12:53:12Z</time>
      </trkpt>
      <trkpt lat="44.47781" lon="5.06863">
        <ele>930.21</ele>
        <time>2018-04-15T12:53:26Z</time>
      </trkpt>
      <trkpt lat="44.47784" lon="5.06865">
        <ele>929.25</ele>
        <time>2018-04-15T12:53:31Z</time>
      </trkpt>
      <trkpt lat="44.47795" lon="5.0687">
        <ele>925.89</ele>
        <time>2018-04-15T12:53:44Z</time>
      </trkpt>
      <trkpt lat="44.47807" lon="5.06867">
        <ele>922.04</ele>
        <time>2018-04-15T12:53:58Z</time>
      </trkpt>
      <trkpt lat="44.47815" lon="5.06858">
        <ele>918.68</ele>
        <time>2018-04-15T12:54:09Z</time>
      </trkpt>
      <trkpt lat="44.47821" lon="5.06847">
        <ele>915.31</ele>
        <time>2018-04-15T12:54:21Z</time>
      </trkpt>
      <trkpt lat="44.47829" lon="5.06831">
        <ele>912.43</ele>
        <time>2018-04-15T12:54:34Z</time>
      </trkpt>
      <trkpt lat="44.4783" lon="5.0682">
        <ele>910.51</ele>
        <time>2018-04-15T12:54:43Z</time>
      </trkpt>
      <trkpt lat="44.47832" lon="5.06801">
        <ele>907.62</ele>
        <time>2018-04-15T12:54:56Z</time>
      </trkpt>
      <trkpt lat="44.47831" lon="5.06785">
        <ele>904.26</ele>
        <time>2018-04-15T12:55:08Z</time>
      </trkpt>
      <trkpt lat="44.47835" lon="5.06768">
        <ele>901.37</ele>
        <time>2018-04-15T12:55:21Z</time>
      </trkpt>
      <trkpt lat="44.47839" lon="5.06754">
        <ele>898.01</ele>
        <time>2018-04-15T12:55:33Z</time>
      </trkpt>
      <trkpt lat="44.47844" lon="5.06741">
        <ele>895.12</ele>
        <time>2018-04-15T12:55:46Z</time>
      </trkpt>
      <trkpt lat="44.47856" lon="5.06727">
        <ele>891.76</ele>
        <time>2018-04-15T12:55:59Z</time>
      </trkpt>
      <trkpt lat="44.47859" lon="5.06715">
        <ele>888.4</ele>
        <time>2018-04-15T12:56:12Z</time>
      </trkpt>
      <trkpt lat="44.47864" lon="5.06704">
        <ele>885.03</ele>
        <time>2018-04-15T12:56:24Z</time>
      </trkpt>
      <trkpt lat="44.47865" lon="5.06701">
        <ele>884.07</ele>
        <time>2018-04-15T12:56:27Z</time>
      </trkpt>
      <trkpt lat="44.47872" lon="5.0669">
        <ele>881.19</ele>
        <time>2018-04-15T12:56:38Z</time>
      </trkpt>
      <trkpt lat="44.47879" lon="5.06682">
        <ele>877.82</ele>
        <time>2018-04-15T12:56:47Z</time>
      </trkpt>
      <trkpt lat="44.47885" lon="5.0667">
        <ele>874.46</ele>
        <time>2018-04-15T12:56:58Z</time>
      </trkpt>
      <trkpt lat="44.47889" lon="5.06661">
        <ele>871.57</ele>
        <time>2018-04-15T12:57:06Z</time>
      </trkpt>
      <trkpt lat="44.4789" lon="5.06659">
        <ele>870.61</ele>
        <time>2018-04-15T12:57:08Z</time>
      </trkpt>
      <trkpt lat="44.47892" lon="5.06655">
        <ele>868.69</ele>
        <time>2018-04-15T12:57:12Z</time>
      </trkpt>
      <trkpt lat="44.47893" lon="5.06648">
        <ele>866.29</ele>
        <time>2018-04-15T12:57:24Z</time>
      </trkpt>
      <trkpt lat="44.47898" lon="5.06636">
        <ele>862.92</ele>
        <time>2018-04-15T12:57:34Z</time>
      </trkpt>
      <trkpt lat="44.47912" lon="5.06619">
        <ele>861.96</ele>
        <time>2018-04-15T12:57:48Z</time>
      </trkpt>
      <trkpt lat="44.47913" lon="5.06618">
        <ele>861.96</ele>
        <time>2018-04-15T12:57:49Z</time>
      </trkpt>
      <trkpt lat="44.47919" lon="5.06602">
        <ele>859.56</ele>
        <time>2018-04-15T12:58:04Z</time>
      </trkpt>
      <trkpt lat="44.47925" lon="5.06593">
        <ele>858.59</ele>
        <time>2018-04-15T12:58:14Z</time>
      </trkpt>
      <trkpt lat="44.47934" lon="5.06579">
        <ele>854.75</ele>
        <time>2018-04-15T12:58:29Z</time>
      </trkpt>
      <trkpt lat="44.47942" lon="5.06571">
        <ele>851.38</ele>
        <time>2018-04-15T12:58:42Z</time>
      </trkpt>
      <trkpt lat="44.47951" lon="5.06561">
        <ele>848.98</ele>
        <time>2018-04-15T12:58:59Z</time>
      </trkpt>
      <trkpt lat="44.47958" lon="5.06551">
        <ele>846.58</ele>
        <time>2018-04-15T12:59:14Z</time>
      </trkpt>
      <trkpt lat="44.47959" lon="5.06544">
        <ele>846.58</ele>
        <time>2018-04-15T12:59:34Z</time>
      </trkpt>
      <trkpt lat="44.47961" lon="5.06543">
        <ele>846.1</ele>
        <time>2018-04-15T12:59:52Z</time>
      </trkpt>
      <trkpt lat="44.47963" lon="5.06544">
        <ele>845.14</ele>
        <time>2018-04-15T13:00:09Z</time>
      </trkpt>
      <trkpt lat="44.47962" lon="5.06543">
        <ele>845.14</ele>
        <time>2018-04-15T13:00:37Z</time>
      </trkpt>
      <trkpt lat="44.47963" lon="5.06539">
        <ele>845.14</ele>
        <time>2018-04-15T13:01:04Z</time>
      </trkpt>
      <trkpt lat="44.47962" lon="5.06539">
        <ele>845.14</ele>
        <time>2018-04-15T13:01:27Z</time>
      </trkpt>
      <trkpt lat="44.47958" lon="5.0653">
        <ele>844.66</ele>
        <time>2018-04-15T13:01:43Z</time>
      </trkpt>
      <trkpt lat="44.4795" lon="5.06519">
        <ele>843.69</ele>
        <time>2018-04-15T13:01:58Z</time>
      </trkpt>
      <trkpt lat="44.4794" lon="5.06507">
        <ele>843.21</ele>
        <time>2018-04-15T13:02:12Z</time>
      </trkpt>
      <trkpt lat="44.47928" lon="5.06494">
        <ele>842.73</ele>
        <time>2018-04-15T13:02:26Z</time>
      </trkpt>
      <trkpt lat="44.47917" lon="5.06475">
        <ele>842.25</ele>
        <time>2018-04-15T13:02:41Z</time>
      </trkpt>
      <trkpt lat="44.47912" lon="5.06458">
        <ele>841.29</ele>
        <time>2018-04-15T13:02:53Z</time>
      </trkpt>
      <trkpt lat="44.47911" lon="5.06456">
        <ele>840.81</ele>
        <time>2018-04-15T13:02:55Z</time>
      </trkpt>
      <trkpt lat="44.47903" lon="5.06441">
        <ele>839.37</ele>
        <time>2018-04-15T13:03:05Z</time>
      </trkpt>
      <trkpt lat="44.47891" lon="5.0642">
        <ele>837.93</ele>
        <time>2018-04-15T13:03:20Z</time>
      </trkpt>
      <trkpt lat="44.47889" lon="5.064">
        <ele>840.33</ele>
        <time>2018-04-15T13:03:35Z</time>
      </trkpt>
      <trkpt lat="44.47888" lon="5.06381">
        <ele>840.81</ele>
        <time>2018-04-15T13:03:49Z</time>
      </trkpt>
      <trkpt lat="44.47888" lon="5.06379">
        <ele>841.29</ele>
        <time>2018-04-15T13:03:51Z</time>
      </trkpt>
      <trkpt lat="44.47885" lon="5.0636">
        <ele>841.77</ele>
        <time>2018-04-15T13:04:04Z</time>
      </trkpt>
      <trkpt lat="44.47883" lon="5.06332">
        <ele>841.77</ele>
        <time>2018-04-15T13:04:17Z</time>
      </trkpt>
      <trkpt lat="44.47883" lon="5.06314">
        <ele>843.21</ele>
        <time>2018-04-15T13:04:31Z</time>
      </trkpt>
      <trkpt lat="44.47883" lon="5.06301">
        <ele>843.69</ele>
        <time>2018-04-15T13:04:47Z</time>
      </trkpt>
      <trkpt lat="44.47883" lon="5.06297">
        <ele>843.69</ele>
        <time>2018-04-15T13:04:50Z</time>
      </trkpt>
      <trkpt lat="44.4788" lon="5.06272">
        <ele>845.14</ele>
        <time>2018-04-15T13:05:06Z</time>
      </trkpt>
      <trkpt lat="44.47878" lon="5.06266">
        <ele>845.14</ele>
        <time>2018-04-15T13:05:10Z</time>
      </trkpt>
      <trkpt lat="44.47875" lon="5.06256">
        <ele>846.1</ele>
        <time>2018-04-15T13:05:23Z</time>
      </trkpt>
      <trkpt lat="44.47876" lon="5.0625">
        <ele>846.1</ele>
        <time>2018-04-15T13:05:36Z</time>
      </trkpt>
      <trkpt lat="44.47877" lon="5.06248">
        <ele>844.66</ele>
        <time>2018-04-15T13:05:38Z</time>
      </trkpt>
      <trkpt lat="44.47881" lon="5.06243">
        <ele>843.69</ele>
        <time>2018-04-15T13:05:43Z</time>
      </trkpt>
      <trkpt lat="44.47892" lon="5.06232">
        <ele>842.25</ele>
        <time>2018-04-15T13:06:00Z</time>
      </trkpt>
      <trkpt lat="44.47898" lon="5.0622">
        <ele>839.85</ele>
        <time>2018-04-15T13:06:14Z</time>
      </trkpt>
      <trkpt lat="44.47908" lon="5.06208">
        <ele>838.89</ele>
        <time>2018-04-15T13:06:29Z</time>
      </trkpt>
      <trkpt lat="44.47923" lon="5.06193">
        <ele>836.48</ele>
        <time>2018-04-15T13:06:46Z</time>
      </trkpt>
      <trkpt lat="44.47936" lon="5.06187">
        <ele>835.52</ele>
        <time>2018-04-15T13:07:00Z</time>
      </trkpt>
      <trkpt lat="44.47942" lon="5.06184">
        <ele>835.04</ele>
        <time>2018-04-15T13:07:06Z</time>
      </trkpt>
      <trkpt lat="44.47948" lon="5.06179">
        <ele>835.04</ele>
        <time>2018-04-15T13:07:13Z</time>
      </trkpt>
      <trkpt lat="44.47955" lon="5.0617">
        <ele>834.56</ele>
        <time>2018-04-15T13:07:22Z</time>
      </trkpt>
      <trkpt lat="44.47971" lon="5.06156">
        <ele>832.16</ele>
        <time>2018-04-15T13:07:38Z</time>
      </trkpt>
      <trkpt lat="44.47975" lon="5.06153">
        <ele>831.2</ele>
        <time>2018-04-15T13:07:42Z</time>
      </trkpt>
      <trkpt lat="44.47977" lon="5.06151">
        <ele>830.72</ele>
        <time>2018-04-15T13:07:45Z</time>
      </trkpt>
      <trkpt lat="44.47986" lon="5.06138">
        <ele>829.27</ele>
        <time>2018-04-15T13:07:59Z</time>
      </trkpt>
      <trkpt lat="44.47992" lon="5.0613">
        <ele>827.83</ele>
        <time>2018-04-15T13:08:15Z</time>
      </trkpt>
      <trkpt lat="44.47995" lon="5.06126">
        <ele>827.35</ele>
        <time>2018-04-15T13:08:19Z</time>
      </trkpt>
      <trkpt lat="44.48009" lon="5.06114">
        <ele>824.95</ele>
        <time>2018-04-15T13:08:34Z</time>
      </trkpt>
      <trkpt lat="44.48027" lon="5.06102">
        <ele>821.58</ele>
        <time>2018-04-15T13:08:50Z</time>
      </trkpt>
      <trkpt lat="44.48033" lon="5.061">
        <ele>821.1</ele>
        <time>2018-04-15T13:08:55Z</time>
      </trkpt>
      <trkpt lat="44.48035" lon="5.06098">
        <ele>820.62</ele>
        <time>2018-04-15T13:08:57Z</time>
      </trkpt>
      <trkpt lat="44.48049" lon="5.06088">
        <ele>816.78</ele>
        <time>2018-04-15T13:09:14Z</time>
      </trkpt>
      <trkpt lat="44.48055" lon="5.06077">
        <ele>814.85</ele>
        <time>2018-04-15T13:09:27Z</time>
      </trkpt>
      <trkpt lat="44.48063" lon="5.06066">
        <ele>811.97</ele>
        <time>2018-04-15T13:09:40Z</time>
      </trkpt>
      <trkpt lat="44.48074" lon="5.06062">
        <ele>810.53</ele>
        <time>2018-04-15T13:09:53Z</time>
      </trkpt>
      <trkpt lat="44.48088" lon="5.06058">
        <ele>808.61</ele>
        <time>2018-04-15T13:10:10Z</time>
      </trkpt>
      <trkpt lat="44.48099" lon="5.06048">
        <ele>805.24</ele>
        <time>2018-04-15T13:10:25Z</time>
      </trkpt>
      <trkpt lat="44.48113" lon="5.06036">
        <ele>801.4</ele>
        <time>2018-04-15T13:10:42Z</time>
      </trkpt>
      <trkpt lat="44.48125" lon="5.06027">
        <ele>798.99</ele>
        <time>2018-04-15T13:10:56Z</time>
      </trkpt>
      <trkpt lat="44.48141" lon="5.06022">
        <ele>795.63</ele>
        <time>2018-04-15T13:11:14Z</time>
      </trkpt>
      <trkpt lat="44.48149" lon="5.06013">
        <ele>792.74</ele>
        <time>2018-04-15T13:11:33Z</time>
      </trkpt>
      <trkpt lat="44.48158" lon="5.06005">
        <ele>790.34</ele>
        <time>2018-04-15T13:11:48Z</time>
      </trkpt>
      <trkpt lat="44.48167" lon="5.05996">
        <ele>787.46</ele>
        <time>2018-04-15T13:12:00Z</time>
      </trkpt>
      <trkpt lat="44.48171" lon="5.05982">
        <ele>785.05</ele>
        <time>2018-04-15T13:12:14Z</time>
      </trkpt>
      <trkpt lat="44.48177" lon="5.05966">
        <ele>782.65</ele>
        <time>2018-04-15T13:12:27Z</time>
      </trkpt>
      <trkpt lat="44.48187" lon="5.05956">
        <ele>780.25</ele>
        <time>2018-04-15T13:12:42Z</time>
      </trkpt>
      <trkpt lat="44.48199" lon="5.05953">
        <ele>777.36</ele>
        <time>2018-04-15T13:12:58Z</time>
      </trkpt>
      <trkpt lat="44.48208" lon="5.05944">
        <ele>774</ele>
        <time>2018-04-15T13:13:12Z</time>
      </trkpt>
      <trkpt lat="44.48216" lon="5.0593">
        <ele>771.11</ele>
        <time>2018-04-15T13:13:29Z</time>
      </trkpt>
      <trkpt lat="44.48219" lon="5.05929">
        <ele>770.15</ele>
        <time>2018-04-15T13:13:45Z</time>
      </trkpt>
      <trkpt lat="44.48221" lon="5.05929">
        <ele>769.67</ele>
        <time>2018-04-15T13:14:13Z</time>
      </trkpt>
      <trkpt lat="44.48221" lon="5.05929">
        <ele>769.67</ele>
        <time>2018-04-15T13:14:46Z</time>
      </trkpt>
      <trkpt lat="44.48219" lon="5.05929">
        <ele>769.19</ele>
        <time>2018-04-15T13:15:09Z</time>
      </trkpt>
      <trkpt lat="44.48221" lon="5.05924">
        <ele>769.19</ele>
        <time>2018-04-15T13:15:23Z</time>
      </trkpt>
      <trkpt lat="44.48225" lon="5.0592">
        <ele>768.23</ele>
        <time>2018-04-15T13:15:43Z</time>
      </trkpt>
      <trkpt lat="44.48234" lon="5.0591">
        <ele>764.87</ele>
        <time>2018-04-15T13:15:58Z</time>
      </trkpt>
      <trkpt lat="44.4824" lon="5.05903">
        <ele>761.98</ele>
        <time>2018-04-15T13:16:10Z</time>
      </trkpt>
      <trkpt lat="44.48242" lon="5.05902">
        <ele>761.02</ele>
        <time>2018-04-15T13:16:31Z</time>
      </trkpt>
      <trkpt lat="44.48247" lon="5.05892">
        <ele>759.1</ele>
        <time>2018-04-15T13:16:50Z</time>
      </trkpt>
      <trkpt lat="44.4825" lon="5.05879">
        <ele>755.73</ele>
        <time>2018-04-15T13:17:03Z</time>
      </trkpt>
      <trkpt lat="44.48251" lon="5.05859">
        <ele>754.77</ele>
        <time>2018-04-15T13:17:18Z</time>
      </trkpt>
      <trkpt lat="44.48251" lon="5.05836">
        <ele>751.41</ele>
        <time>2018-04-15T13:17:33Z</time>
      </trkpt>
      <trkpt lat="44.48249" lon="5.05821">
        <ele>747.56</ele>
        <time>2018-04-15T13:17:47Z</time>
      </trkpt>
      <trkpt lat="44.48257" lon="5.0581">
        <ele>744.68</ele>
        <time>2018-04-15T13:17:59Z</time>
      </trkpt>
      <trkpt lat="44.48264" lon="5.058">
        <ele>741.79</ele>
        <time>2018-04-15T13:18:12Z</time>
      </trkpt>
      <trkpt lat="44.48268" lon="5.05791">
        <ele>738.43</ele>
        <time>2018-04-15T13:18:24Z</time>
      </trkpt>
      <trkpt lat="44.4827" lon="5.05775">
        <ele>735.55</ele>
        <time>2018-04-15T13:18:38Z</time>
      </trkpt>
      <trkpt lat="44.48269" lon="5.05763">
        <ele>732.66</ele>
        <time>2018-04-15T13:18:52Z</time>
      </trkpt>
      <trkpt lat="44.48266" lon="5.05757">
        <ele>731.22</ele>
        <time>2018-04-15T13:18:58Z</time>
      </trkpt>
      <trkpt lat="44.4826" lon="5.05743">
        <ele>727.86</ele>
        <time>2018-04-15T13:19:13Z</time>
      </trkpt>
      <trkpt lat="44.48264" lon="5.05732">
        <ele>725.93</ele>
        <time>2018-04-15T13:19:29Z</time>
      </trkpt>
      <trkpt lat="44.48271" lon="5.05725">
        <ele>723.05</ele>
        <time>2018-04-15T13:19:41Z</time>
      </trkpt>
      <trkpt lat="44.48278" lon="5.05713">
        <ele>719.68</ele>
        <time>2018-04-15T13:19:53Z</time>
      </trkpt>
      <trkpt lat="44.48285" lon="5.05704">
        <ele>716.32</ele>
        <time>2018-04-15T13:20:06Z</time>
      </trkpt>
      <trkpt lat="44.48292" lon="5.05697">
        <ele>712.95</ele>
        <time>2018-04-15T13:20:18Z</time>
      </trkpt>
      <trkpt lat="44.48297" lon="5.05687">
        <ele>709.59</ele>
        <time>2018-04-15T13:20:32Z</time>
      </trkpt>
      <trkpt lat="44.48309" lon="5.05677">
        <ele>706.71</ele>
        <time>2018-04-15T13:20:48Z</time>
      </trkpt>
      <trkpt lat="44.48314" lon="5.05674">
        <ele>704.78</ele>
        <time>2018-04-15T13:20:55Z</time>
      </trkpt>
      <trkpt lat="44.48327" lon="5.05663">
        <ele>700.46</ele>
        <time>2018-04-15T13:21:11Z</time>
      </trkpt>
      <trkpt lat="44.48335" lon="5.05654">
        <ele>697.57</ele>
        <time>2018-04-15T13:21:24Z</time>
      </trkpt>
      <trkpt lat="44.4834" lon="5.05647">
        <ele>694.69</ele>
        <time>2018-04-15T13:21:35Z</time>
      </trkpt>
      <trkpt lat="44.48347" lon="5.05638">
        <ele>692.29</ele>
        <time>2018-04-15T13:21:47Z</time>
      </trkpt>
      <trkpt lat="44.48353" lon="5.05627">
        <ele>688.92</ele>
        <time>2018-04-15T13:21:59Z</time>
      </trkpt>
      <trkpt lat="44.48355" lon="5.05613">
        <ele>685.56</ele>
        <time>2018-04-15T13:22:13Z</time>
      </trkpt>
      <trkpt lat="44.48365" lon="5.05607">
        <ele>681.71</ele>
        <time>2018-04-15T13:22:27Z</time>
      </trkpt>
      <trkpt lat="44.48372" lon="5.056">
        <ele>678.83</ele>
        <time>2018-04-15T13:22:39Z</time>
      </trkpt>
      <trkpt lat="44.48378" lon="5.05592">
        <ele>675.94</ele>
        <time>2018-04-15T13:22:49Z</time>
      </trkpt>
      <trkpt lat="44.48391" lon="5.05585">
        <ele>673.06</ele>
        <time>2018-04-15T13:23:02Z</time>
      </trkpt>
      <trkpt lat="44.48403" lon="5.05581">
        <ele>670.18</ele>
        <time>2018-04-15T13:23:16Z</time>
      </trkpt>
      <trkpt lat="44.48409" lon="5.05569">
        <ele>666.81</ele>
        <time>2018-04-15T13:23:29Z</time>
      </trkpt>
      <trkpt lat="44.48415" lon="5.05553">
        <ele>663.45</ele>
        <time>2018-04-15T13:23:44Z</time>
      </trkpt>
      <trkpt lat="44.48419" lon="5.05547">
        <ele>661.52</ele>
        <time>2018-04-15T13:23:50Z</time>
      </trkpt>
      <trkpt lat="44.48426" lon="5.05537">
        <ele>659.6</ele>
        <time>2018-04-15T13:23:59Z</time>
      </trkpt>
      <trkpt lat="44.48433" lon="5.05526">
        <ele>655.76</ele>
        <time>2018-04-15T13:24:14Z</time>
      </trkpt>
      <trkpt lat="44.48439" lon="5.05517">
        <ele>652.87</ele>
        <time>2018-04-15T13:24:26Z</time>
      </trkpt>
      <trkpt lat="44.48448" lon="5.05508">
        <ele>649.03</ele>
        <time>2018-04-15T13:24:39Z</time>
      </trkpt>
      <trkpt lat="44.48457" lon="5.05503">
        <ele>646.14</ele>
        <time>2018-04-15T13:30:35Z</time>
      </trkpt>
      <trkpt lat="44.48453" lon="5.05492">
        <ele>646.14</ele>
        <time>2018-04-15T13:31:16Z</time>
      </trkpt>
      <trkpt lat="44.48441" lon="5.05487">
        <ele>649.03</ele>
        <time>2018-04-15T13:31:30Z</time>
      </trkpt>
      <trkpt lat="44.4843" lon="5.05482">
        <ele>650.47</ele>
        <time>2018-04-15T13:31:42Z</time>
      </trkpt>
      <trkpt lat="44.48421" lon="5.05469">
        <ele>648.07</ele>
        <time>2018-04-15T13:31:57Z</time>
      </trkpt>
      <trkpt lat="44.48417" lon="5.05462">
        <ele>648.55</ele>
        <time>2018-04-15T13:32:02Z</time>
      </trkpt>
      <trkpt lat="44.48407" lon="5.05443">
        <ele>646.14</ele>
        <time>2018-04-15T13:32:18Z</time>
      </trkpt>
      <trkpt lat="44.48405" lon="5.05439">
        <ele>644.7</ele>
        <time>2018-04-15T13:32:23Z</time>
      </trkpt>
      <trkpt lat="44.48396" lon="5.05427">
        <ele>641.82</ele>
        <time>2018-04-15T13:32:35Z</time>
      </trkpt>
      <trkpt lat="44.48389" lon="5.05416">
        <ele>638.93</ele>
        <time>2018-04-15T13:32:46Z</time>
      </trkpt>
      <trkpt lat="44.48385" lon="5.05405">
        <ele>636.05</ele>
        <time>2018-04-15T13:32:57Z</time>
      </trkpt>
      <trkpt lat="44.48383" lon="5.05389">
        <ele>632.68</ele>
        <time>2018-04-15T13:33:07Z</time>
      </trkpt>
      <trkpt lat="44.48384" lon="5.05377">
        <ele>629.32</ele>
        <time>2018-04-15T13:33:18Z</time>
      </trkpt>
      <trkpt lat="44.48383" lon="5.05371">
        <ele>627.4</ele>
        <time>2018-04-15T13:33:32Z</time>
      </trkpt>
      <trkpt lat="44.48386" lon="5.0536">
        <ele>624.51</ele>
        <time>2018-04-15T13:33:44Z</time>
      </trkpt>
      <trkpt lat="44.48388" lon="5.0535">
        <ele>621.15</ele>
        <time>2018-04-15T13:33:55Z</time>
      </trkpt>
      <trkpt lat="44.48396" lon="5.0534">
        <ele>618.26</ele>
        <time>2018-04-15T13:34:09Z</time>
      </trkpt>
      <trkpt lat="44.48407" lon="5.05331">
        <ele>615.38</ele>
        <time>2018-04-15T13:34:23Z</time>
      </trkpt>
      <trkpt lat="44.48411" lon="5.05324">
        <ele>612.02</ele>
        <time>2018-04-15T13:34:35Z</time>
      </trkpt>
      <trkpt lat="44.48408" lon="5.05314">
        <ele>609.13</ele>
        <time>2018-04-15T13:34:49Z</time>
      </trkpt>
      <trkpt lat="44.48403" lon="5.05306">
        <ele>606.25</ele>
        <time>2018-04-15T13:35:01Z</time>
      </trkpt>
      <trkpt lat="44.48394" lon="5.05298">
        <ele>603.36</ele>
        <time>2018-04-15T13:35:13Z</time>
      </trkpt>
      <trkpt lat="44.48386" lon="5.0529">
        <ele>600.48</ele>
        <time>2018-04-15T13:35:26Z</time>
      </trkpt>
      <trkpt lat="44.48378" lon="5.05278">
        <ele>597.12</ele>
        <time>2018-04-15T13:35:40Z</time>
      </trkpt>
      <trkpt lat="44.48372" lon="5.05271">
        <ele>593.75</ele>
        <time>2018-04-15T13:35:53Z</time>
      </trkpt>
      <trkpt lat="44.48359" lon="5.05253">
        <ele>590.87</ele>
        <time>2018-04-15T13:36:07Z</time>
      </trkpt>
      <trkpt lat="44.4835" lon="5.05245">
        <ele>587.5</ele>
        <time>2018-04-15T13:36:18Z</time>
      </trkpt>
      <trkpt lat="44.48338" lon="5.05238">
        <ele>585.58</ele>
        <time>2018-04-15T13:36:31Z</time>
      </trkpt>
      <trkpt lat="44.48325" lon="5.05238">
        <ele>583.66</ele>
        <time>2018-04-15T13:36:45Z</time>
      </trkpt>
      <trkpt lat="44.48315" lon="5.05232">
        <ele>580.77</ele>
        <time>2018-04-15T13:36:57Z</time>
      </trkpt>
      <trkpt lat="44.48303" lon="5.05229">
        <ele>577.89</ele>
        <time>2018-04-15T13:37:11Z</time>
      </trkpt>
      <trkpt lat="44.48293" lon="5.05227">
        <ele>575.97</ele>
        <time>2018-04-15T13:37:23Z</time>
      </trkpt>
      <trkpt lat="44.48279" lon="5.05224">
        <ele>572.12</ele>
        <time>2018-04-15T13:37:37Z</time>
      </trkpt>
      <trkpt lat="44.48271" lon="5.05223">
        <ele>570.68</ele>
        <time>2018-04-15T13:37:52Z</time>
      </trkpt>
      <trkpt lat="44.48263" lon="5.05223">
        <ele>567.8</ele>
        <time>2018-04-15T13:38:06Z</time>
      </trkpt>
      <trkpt lat="44.48258" lon="5.05219">
        <ele>567.32</ele>
        <time>2018-04-15T13:38:19Z</time>
      </trkpt>
      <trkpt lat="44.48259" lon="5.05217">
        <ele>567.32</ele>
        <time>2018-04-15T13:38:36Z</time>
      </trkpt>
      <trkpt lat="44.48257" lon="5.0522">
        <ele>567.32</ele>
        <time>2018-04-15T13:39:06Z</time>
      </trkpt>
      <trkpt lat="44.48253" lon="5.05222">
        <ele>565.87</ele>
        <time>2018-04-15T13:39:30Z</time>
      </trkpt>
      <trkpt lat="44.48241" lon="5.05222">
        <ele>562.51</ele>
        <time>2018-04-15T13:39:42Z</time>
      </trkpt>
      <trkpt lat="44.48238" lon="5.05223">
        <ele>562.03</ele>
        <time>2018-04-15T13:39:44Z</time>
      </trkpt>
      <trkpt lat="44.48234" lon="5.05221">
        <ele>561.07</ele>
        <time>2018-04-15T13:39:48Z</time>
      </trkpt>
      <trkpt lat="44.48224" lon="5.05217">
        <ele>559.14</ele>
        <time>2018-04-15T13:39:57Z</time>
      </trkpt>
      <trkpt lat="44.48212" lon="5.05202">
        <ele>555.78</ele>
        <time>2018-04-15T13:40:10Z</time>
      </trkpt>
      <trkpt lat="44.48209" lon="5.05198">
        <ele>555.3</ele>
        <time>2018-04-15T13:40:14Z</time>
      </trkpt>
      <trkpt lat="44.48198" lon="5.05183">
        <ele>551.45</ele>
        <time>2018-04-15T13:40:27Z</time>
      </trkpt>
      <trkpt lat="44.48191" lon="5.05169">
        <ele>548.57</ele>
        <time>2018-04-15T13:40:39Z</time>
      </trkpt>
      <trkpt lat="44.48183" lon="5.05153">
        <ele>545.2</ele>
        <time>2018-04-15T13:40:52Z</time>
      </trkpt>
      <trkpt lat="44.48175" lon="5.05139">
        <ele>541.84</ele>
        <time>2018-04-15T13:41:04Z</time>
      </trkpt>
      <trkpt lat="44.48168" lon="5.05124">
        <ele>538.96</ele>
        <time>2018-04-15T13:41:17Z</time>
      </trkpt>
      <trkpt lat="44.4816" lon="5.05107">
        <ele>535.11</ele>
        <time>2018-04-15T13:41:30Z</time>
      </trkpt>
      <trkpt lat="44.48151" lon="5.05093">
        <ele>532.71</ele>
        <time>2018-04-15T13:41:44Z</time>
      </trkpt>
      <trkpt lat="44.48143" lon="5.0508">
        <ele>529.82</ele>
        <time>2018-04-15T13:41:58Z</time>
      </trkpt>
      <trkpt lat="44.48135" lon="5.05066">
        <ele>527.42</ele>
        <time>2018-04-15T13:42:13Z</time>
      </trkpt>
      <trkpt lat="44.48128" lon="5.05055">
        <ele>524.54</ele>
        <time>2018-04-15T13:42:27Z</time>
      </trkpt>
      <trkpt lat="44.4812" lon="5.05046">
        <ele>522.13</ele>
        <time>2018-04-15T13:42:41Z</time>
      </trkpt>
      <trkpt lat="44.48114" lon="5.05036">
        <ele>518.77</ele>
        <time>2018-04-15T13:42:53Z</time>
      </trkpt>
      <trkpt lat="44.48103" lon="5.05029">
        <ele>515.4</ele>
        <time>2018-04-15T13:43:06Z</time>
      </trkpt>
      <trkpt lat="44.48093" lon="5.0502">
        <ele>512.52</ele>
        <time>2018-04-15T13:43:20Z</time>
      </trkpt>
      <trkpt lat="44.48087" lon="5.05012">
        <ele>509.16</ele>
        <time>2018-04-15T13:43:32Z</time>
      </trkpt>
      <trkpt lat="44.48078" lon="5.05005">
        <ele>505.79</ele>
        <time>2018-04-15T13:43:45Z</time>
      </trkpt>
      <trkpt lat="44.48071" lon="5.04998">
        <ele>503.39</ele>
        <time>2018-04-15T13:44:01Z</time>
      </trkpt>
      <trkpt lat="44.48064" lon="5.04998">
        <ele>500.98</ele>
        <time>2018-04-15T13:44:15Z</time>
      </trkpt>
      <trkpt lat="44.48056" lon="5.04989">
        <ele>498.1</ele>
        <time>2018-04-15T13:44:30Z</time>
      </trkpt>
      <trkpt lat="44.48053" lon="5.04986">
        <ele>496.66</ele>
        <time>2018-04-15T13:44:35Z</time>
      </trkpt>
      <trkpt lat="44.48045" lon="5.04978">
        <ele>492.81</ele>
        <time>2018-04-15T13:44:48Z</time>
      </trkpt>
      <trkpt lat="44.48039" lon="5.04969">
        <ele>489.45</ele>
        <time>2018-04-15T13:45:00Z</time>
      </trkpt>
      <trkpt lat="44.48034" lon="5.04961">
        <ele>486.56</ele>
        <time>2018-04-15T13:45:14Z</time>
      </trkpt>
      <trkpt lat="44.48028" lon="5.04954">
        <ele>484.64</ele>
        <time>2018-04-15T13:45:28Z</time>
      </trkpt>
      <trkpt lat="44.4802" lon="5.04948">
        <ele>481.28</ele>
        <time>2018-04-15T13:45:40Z</time>
      </trkpt>
      <trkpt lat="44.48011" lon="5.04944">
        <ele>478.39</ele>
        <time>2018-04-15T13:45:52Z</time>
      </trkpt>
      <trkpt lat="44.48003" lon="5.04951">
        <ele>476.47</ele>
        <time>2018-04-15T13:46:05Z</time>
      </trkpt>
      <trkpt lat="44.47992" lon="5.04953">
        <ele>473.11</ele>
        <time>2018-04-15T13:46:19Z</time>
      </trkpt>
      <trkpt lat="44.47982" lon="5.0495">
        <ele>470.22</ele>
        <time>2018-04-15T13:46:32Z</time>
      </trkpt>
      <trkpt lat="44.47969" lon="5.04942">
        <ele>466.86</ele>
        <time>2018-04-15T13:46:45Z</time>
      </trkpt>
      <trkpt lat="44.47958" lon="5.04926">
        <ele>464.93</ele>
        <time>2018-04-15T13:47:02Z</time>
      </trkpt>
      <trkpt lat="44.47955" lon="5.0492">
        <ele>463.97</ele>
        <time>2018-04-15T13:47:07Z</time>
      </trkpt>
      <trkpt lat="44.47943" lon="5.04902">
        <ele>460.61</ele>
        <time>2018-04-15T13:47:23Z</time>
      </trkpt>
      <trkpt lat="44.4793" lon="5.04887">
        <ele>457.72</ele>
        <time>2018-04-15T13:47:38Z</time>
      </trkpt>
      <trkpt lat="44.47917" lon="5.04875">
        <ele>455.8</ele>
        <time>2018-04-15T13:47:52Z</time>
      </trkpt>
      <trkpt lat="44.47903" lon="5.04863">
        <ele>453.88</ele>
        <time>2018-04-15T13:48:07Z</time>
      </trkpt>
      <trkpt lat="44.47891" lon="5.04855">
        <ele>452.92</ele>
        <time>2018-04-15T13:48:20Z</time>
      </trkpt>
      <trkpt lat="44.47882" lon="5.04839">
        <ele>450.52</ele>
        <time>2018-04-15T13:48:36Z</time>
      </trkpt>
      <trkpt lat="44.47894" lon="5.04829">
        <ele>448.59</ele>
        <time>2018-04-15T13:48:49Z</time>
      </trkpt>
      <trkpt lat="44.479" lon="5.04825">
        <ele>448.59</ele>
        <time>2018-04-15T13:48:54Z</time>
      </trkpt>
      <trkpt lat="44.47915" lon="5.04809">
        <ele>448.11</ele>
        <time>2018-04-15T13:49:10Z</time>
      </trkpt>
      <trkpt lat="44.47929" lon="5.04791">
        <ele>447.15</ele>
        <time>2018-04-15T13:49:25Z</time>
      </trkpt>
      <trkpt lat="44.47937" lon="5.04783">
        <ele>447.15</ele>
        <time>2018-04-15T13:49:33Z</time>
      </trkpt>
      <trkpt lat="44.47939" lon="5.0478">
        <ele>446.67</ele>
        <time>2018-04-15T13:49:36Z</time>
      </trkpt>
      <trkpt lat="44.4794" lon="5.04773">
        <ele>445.71</ele>
        <time>2018-04-15T13:49:52Z</time>
      </trkpt>
    </trkseg>
  </trk>
</gpx>